Latitude: N 50° 09' 49" Longitude: W 05° 11' 53" Elevation: 168m ASL

There are 26 visitors online

Adverts

<- Previous Day | Today | Next Day ->

All Data for 11 September 2019

Time
A - D
Temp
A - D
Dew Point
A - D
Humidity
A - D
Pressure
A - D
Wind
A - D
Wind Dir Gust
A - D
Rain Rate
A - D
Rain Total
00:00 11.4 7.3 76 1023.6 3.8 SW 4.5 0.0 0.0
00:01 11.4 7.3 76 1023.8 3.8 SW 4.5 0.0 0.0
00:02 11.4 7.3 76 1023.6 3.8 SW 4.5 0.0 0.0
00:03 11.4 7.3 76 1023.9 3.8 SW 4.5 0.0 0.0
00:04 11.4 7.3 76 1023.7 3.8 SW 4.5 0.0 0.0
00:05 11.4 7.3 76 1023.6 3.8 SW 4.5 0.0 0.0
00:06 11.5 7.6 77 1023.7 4.5 S 5.4 0.0 0.0
00:07 11.5 7.6 77 1023.7 4.5 SSW 5.4 0.0 0.0
00:08 11.5 7.6 77 1023.8 5.4 S 5.4 0.0 0.0
00:09 11.6 7.7 77 1023.8 5.4 SW 5.4 0.0 0.0
00:10 11.6 7.7 77 1023.7 4.5 SW 5.4 0.0 0.0
00:11 11.6 7.7 77 1023.6 4.5 SW 5.4 0.0 0.0
00:12 11.7 7.8 77 1023.6 5.4 S 5.4 0.0 0.0
00:13 11.7 8.0 78 1023.5 4.5 S 5.4 0.0 0.0
00:15 11.7 8.0 78 1023.7 6.0 SW 6.0 0.0 0.0
00:16 11.8 8.1 78 1023.6 5.4 S 6.0 0.0 0.0
00:17 11.8 8.1 78 1023.7 6.9 S 6.9 0.0 0.0
00:18 11.8 8.1 78 1023.6 5.4 S 6.9 0.0 0.0
00:19 11.9 8.2 78 1023.6 5.4 SW 6.9 0.0 0.0
00:20 11.9 8.2 78 1023.7 6.9 SW 6.9 0.0 0.0
00:21 11.9 8.2 78 1023.6 6.0 SW 6.9 0.0 0.0
00:22 12.0 8.5 79 1023.7 6.9 SW 6.9 0.0 0.0
00:23 12.0 8.5 79 1023.5 6.0 SW 6.9 0.0 0.0
00:24 12.0 8.5 79 1023.7 6.0 SW 6.9 0.0 0.0
00:25 12.1 8.6 79 1023.6 6.0 SW 6.9 0.0 0.0
00:26 12.1 8.6 79 1023.5 5.4 SSW 6.9 0.0 0.0
00:27 12.2 8.7 79 1023.5 6.0 SW 6.9 0.0 0.0
00:28 12.2 8.7 79 1023.5 8.3 SW 8.3 0.0 0.0
00:29 12.2 8.7 79 1023.5 7.6 SE 8.3 0.0 0.0
00:30 12.3 8.8 79 1023.5 6.9 SW 8.3 0.0 0.0
00:31 12.3 8.8 79 1023.5 6.0 S 8.3 0.0 0.0
00:32 12.4 8.9 79 1023.5 6.0 S 8.3 0.0 0.0
00:33 12.4 9.0 80 1023.3 9.2 SW 9.2 0.0 0.0
00:35 12.5 9.1 80 1023.5 8.3 NNW 9.2 0.0 0.0
00:36 12.5 9.1 80 1023.4 8.3 SW 9.2 0.0 0.0
00:37 12.6 9.2 80 1023.4 6.9 SW 9.2 0.0 0.0
00:38 12.6 9.2 80 1023.4 6.9 NW 9.2 0.0 0.0
00:39 12.7 9.3 80 1023.4 7.6 SW 9.2 0.0 0.0
00:40 12.7 9.3 80 1023.5 6.0 SW 9.2 0.0 0.0
00:41 12.7 9.3 80 1023.4 6.0 SW 9.2 0.0 0.0
00:42 12.8 9.4 80 1023.5 6.9 S 9.2 0.0 0.0
00:44 12.9 9.5 80 1023.4 6.9 SW 8.3 0.0 0.0
00:45 12.9 9.7 81 1023.4 9.8 WSW 9.8 0.0 0.0
00:46 13.0 9.8 81 1023.3 9.8 SW 9.8 0.0 0.0
00:47 13.0 9.8 81 1023.3 6.9 SSW 9.8 0.0 0.0
00:48 13.0 9.8 81 1023.3 6.9 SSW 9.8 0.0 0.0
00:49 13.1 9.9 81 1023.2 6.9 S 9.8 0.0 0.0
00:50 13.1 9.9 81 1023.2 8.3 SSW 9.8 0.0 0.0
00:51 13.1 9.9 81 1023.3 8.3 S 9.8 0.0 0.0
00:52 13.2 10.0 81 1023.2 7.6 S 9.8 0.0 0.0
00:53 13.2 10.0 81 1023.2 7.6 SW 9.8 0.0 0.0
00:54 13.2 10.0 81 1023.3 11.4 S 11.4 0.0 0.0
00:55 13.2 10.0 81 1023.3 11.4 S 11.4 0.0 0.0
00:56 13.3 10.1 81 1023.2 8.3 S 11.4 0.0 0.0
00:57 13.3 10.1 81 1023.2 8.3 SW 11.4 0.0 0.0
00:58 13.4 10.2 81 1023.2 9.8 SW 11.4 0.0 0.0
00:59 13.4 10.2 81 1023.2 9.8 SW 11.4 0.0 0.0
01:00 13.4 10.2 81 1023.4 9.8 SW 11.4 0.0 0.0
01:02 13.5 10.3 81 1023.2 9.8 SW 11.4 0.0 0.0
01:03 13.5 10.3 81 1023.3 9.8 SW 11.4 0.0 0.0
01:04 13.6 10.4 81 1023.1 7.6 S 10.7 0.0 0.0
01:05 13.6 10.4 81 1023.2 7.6 SW 10.7 0.0 0.0
01:06 13.6 10.4 81 1023.2 9.8 S 10.7 0.0 0.0
01:07 13.6 10.4 81 1023.2 8.3 S 10.7 0.0 0.0
01:09 13.6 10.4 81 1023.1 6.9 SW 10.7 0.0 0.0
01:10 13.6 10.4 81 1023.1 10.7 SW 10.7 0.0 0.0
01:11 13.7 10.5 81 1023.0 9.2 WSW 10.7 0.0 0.0
01:12 13.7 10.5 81 1023.0 9.2 WSW 10.7 0.0 0.0
01:13 13.7 10.5 81 1023.1 9.8 S 10.7 0.0 0.0
01:14 13.7 10.5 81 1023.1 11.4 SW 11.4 0.0 0.0
01:15 13.7 10.5 81 1023.1 11.4 SW 11.4 0.0 0.0
01:16 13.7 10.5 81 1023.0 13.0 SW 13.0 0.0 0.0
01:17 13.7 10.7 82 1023.1 11.4 SW 13.0 0.0 0.0
01:18 13.8 10.8 82 1023.1 11.4 SW 13.0 0.0 0.0
01:19 13.8 10.8 82 1023.1 6.9 SW 13.0 0.0 0.0
01:20 13.8 10.6 81 1023.1 7.6 SSW 13.0 0.0 0.0
01:21 13.8 10.6 81 1023.1 8.3 S 13.0 0.0 0.0
01:22 13.8 10.8 82 1023.1 13.6 SW 13.6 0.0 0.0
01:23 13.8 10.8 82 1023.1 12.1 S 13.6 0.0 0.0
01:24 13.8 10.6 81 1023.0 8.3 SSW 13.6 0.0 0.0
01:25 13.9 10.9 82 1022.9 11.4 S 13.6 0.0 0.0
01:26 13.9 10.9 82 1023.0 11.4 SW 13.6 0.0 0.0
01:28 13.9 10.9 82 1023.0 8.3 S 13.6 0.0 0.0
01:29 13.9 10.9 82 1023.0 8.3 NNW 13.6 0.0 0.0
01:30 13.9 10.9 82 1023.0 10.7 SW 13.6 0.0 0.0
01:31 13.9 10.9 82 1022.9 6.9 S 13.6 0.0 0.0
01:32 13.9 10.9 82 1023.0 7.6 S 13.6 0.0 0.0
01:33 13.9 10.9 82 1023.0 8.3 SW 12.1 0.0 0.0
01:34 13.9 10.9 82 1023.0 9.8 SE 13.0 0.0 0.0
01:35 13.9 10.9 82 1023.0 8.3 SW 13.0 0.0 0.0
01:36 13.9 10.9 82 1022.9 13.0 WSW 13.0 0.0 0.0
01:37 13.9 10.9 82 1023.0 10.7 SW 13.0 0.0 0.0
01:38 13.9 10.9 82 1022.9 9.2 S 13.0 0.0 0.0
01:39 13.9 10.9 82 1023.0 10.7 S 13.0 0.0 0.0
01:40 13.9 10.9 82 1023.0 12.1 S 13.0 0.0 0.0
01:41 13.9 10.9 82 1023.0 11.4 S 13.0 0.0 0.0
01:42 13.9 10.9 82 1023.0 8.3 S 13.0 0.0 0.0
01:43 13.9 10.9 82 1023.1 9.8 SW 13.0 0.0 0.0
01:44 13.9 10.9 82 1023.0 11.4 SW 13.0 0.0 0.0
01:45 13.9 10.9 82 1023.0 13.6 SW 13.6 0.0 0.0
01:47 14.0 11.2 83 1023.1 9.8 SW 13.6 0.0 0.0
01:48 14.0 11.2 83 1023.1 10.7 SW 13.6 0.0 0.0
01:49 14.0 11.2 83 1023.3 9.8 SW 13.6 0.0 0.0
01:50 14.0 11.2 83 1023.3 9.8 SW 13.6 0.0 0.0
01:51 14.0 11.2 83 1023.2 8.3 SW 13.6 0.0 0.0
01:52 14.0 11.2 83 1023.1 10.7 SE 13.6 0.0 0.0
01:53 14.0 11.2 83 1023.1 10.7 S 13.6 0.0 0.0
01:54 14.1 11.3 83 1023.1 12.1 SE 13.6 0.0 0.0
01:55 14.1 11.3 83 1023.0 12.1 S 13.6 0.0 0.0
01:56 14.1 11.3 83 1023.0 10.7 SW 13.0 0.0 0.0
01:57 14.1 11.3 83 1023.1 9.8 S 13.0 0.0 0.0
01:58 14.1 11.3 83 1023.1 7.6 SW 13.0 0.0 0.0
01:59 14.1 11.3 83 1023.0 8.3 W 13.0 0.0 0.0
02:00 14.1 11.3 83 1023.2 7.6 SW 13.0 0.0 0.0
02:01 14.1 11.3 83 1023.1 15.2 S 15.2 0.0 0.0
02:02 14.3 11.5 83 1023.1 13.0 SW 15.2 0.0 0.0
02:03 14.1 11.3 83 1023.0 11.4 S 15.2 0.0 0.0
02:04 14.2 11.4 83 1023.0 9.8 SW 15.2 0.0 0.0
02:06 14.2 11.5 84 1023.0 10.7 S 15.2 0.0 0.0
02:07 14.2 11.5 84 1023.0 12.1 SW 15.2 0.0 0.0
02:08 14.2 11.5 84 1023.0 13.0 SSW 15.2 0.0 0.0
02:09 14.2 11.5 84 1023.0 13.0 SSW 15.2 0.0 0.0
02:10 14.2 11.5 84 1022.9 9.8 SW 15.2 0.0 0.0
02:11 14.2 11.5 84 1022.9 8.3 SSW 15.2 0.0 0.0
02:12 14.2 11.5 84 1023.0 10.7 SW 13.0 0.0 0.0
02:13 14.2 11.5 84 1023.0 11.4 SSW 13.0 0.0 0.0
02:14 14.2 11.5 84 1022.8 8.3 SW 13.0 0.0 0.0
02:15 14.2 11.5 84 1022.9 9.2 SW 13.0 0.0 0.0
02:16 14.2 11.5 84 1022.8 8.3 SW 13.0 0.0 0.0
02:17 14.2 11.5 84 1023.0 13.0 SE 13.0 0.0 0.0
02:18 14.3 11.6 84 1022.7 12.1 SW 13.0 0.0 0.0
02:19 14.3 11.6 84 1022.8 12.1 SW 15.2 0.0 0.0
02:20 14.3 11.6 84 1022.8 15.9 SW 15.9 0.0 0.0
02:21 14.3 11.6 84 1022.8 10.7 N 15.9 0.0 0.0
02:22 14.3 11.8 85 1022.9 10.7 SW 15.9 0.0 0.0
02:23 14.3 11.8 85 1022.8 5.4 S 15.9 0.0 0.0
02:25 14.3 11.8 85 1023.0 12.1 S 15.9 0.0 0.0
02:26 14.3 11.8 85 1023.0 11.4 SW 15.9 0.0 0.0
02:27 14.3 11.8 85 1022.9 9.2 SE 15.9 0.0 0.0
02:28 14.3 11.8 85 1022.9 9.2 SE 15.9 0.0 0.0
02:29 14.3 11.8 85 1022.8 11.4 SW 15.9 0.0 0.0
02:30 14.4 11.9 85 1022.8 12.1 SW 15.9 0.0 0.0
02:31 14.4 11.9 85 1022.8 10.7 SW 13.6 0.0 0.0
02:32 14.4 11.9 85 1022.7 8.3 S 13.6 0.0 0.0
02:33 14.4 11.9 85 1022.9 15.2 S 15.2 0.0 0.0
02:34 14.4 11.9 85 1022.7 13.6 S 15.2 0.0 0.0
02:35 14.4 11.9 85 1022.7 15.2 S 15.2 0.0 0.0
02:36 14.4 11.9 85 1022.7 12.1 SW 15.2 0.0 0.0
02:37 14.4 11.9 85 1022.8 11.4 SW 15.2 0.0 0.0
02:38 14.4 11.9 85 1022.8 11.4 SW 15.2 0.0 0.0
02:39 14.4 11.9 85 1022.8 10.7 SW 15.2 0.0 0.0
02:40 14.4 11.9 85 1022.7 10.7 SW 15.2 0.0 0.0
02:41 14.5 12.0 85 1022.7 13.6 W 15.2 0.0 0.0
02:42 14.5 12.2 86 1022.5 10.7 S 15.2 0.0 0.0
02:43 14.5 12.2 86 1022.7 8.3 SW 15.2 0.0 0.0
02:45 14.5 12.2 86 1022.7 9.8 W 15.2 0.0 0.0
02:46 14.5 12.2 86 1022.8 11.4 SW 13.6 0.0 0.0
02:47 14.5 12.2 86 1022.5 13.0 W 13.6 0.0 0.0
02:48 14.5 12.2 86 1022.7 13.0 S 13.6 0.0 0.0
02:49 14.5 12.2 86 1022.6 9.8 S 13.6 0.0 0.0
02:50 14.5 12.2 86 1022.6 9.8 SW 13.6 0.0 0.0
02:51 14.5 12.2 86 1022.5 13.6 SW 13.6 0.0 0.0
02:52 14.5 12.2 86 1022.5 11.4 SW 13.6 0.0 0.0
02:53 14.5 12.2 86 1022.6 9.2 SW 13.6 0.0 0.0
02:54 14.6 12.3 86 1022.5 13.6 SW 13.6 0.0 0.0
02:55 14.5 12.2 86 1022.5 12.1 S 13.6 0.0 0.0
02:56 14.6 12.3 86 1022.6 13.6 SW 13.6 0.0 0.0
02:57 14.6 12.3 86 1022.6 12.1 S 13.6 0.0 0.0
02:58 14.6 12.3 86 1022.5 11.4 SW 13.6 0.0 0.0
02:59 14.6 12.5 87 1022.3 13.0 S 13.6 0.0 0.0
03:00 14.6 12.5 87 1022.4 10.7 S 15.9 0.0 0.0
03:01 14.6 12.5 87 1022.3 10.7 S 15.9 0.0 0.0
03:02 14.6 12.5 87 1022.4 13.6 S 15.9 0.0 0.0
03:04 14.6 12.5 87 1022.3 15.2 SW 15.9 0.0 0.0
03:05 14.6 12.5 87 1022.3 14.5 S 15.9 0.0 0.0
03:06 14.6 12.5 87 1022.4 14.5 S 15.9 0.0 0.0
03:07 14.6 12.5 87 1022.5 12.1 S 15.9 0.0 0.0
03:08 14.7 12.6 87 1022.4 13.0 SW 15.9 0.0 0.0
03:09 14.7 12.6 87 1022.4 13.0 SW 15.9 0.0 0.0
03:10 14.7 12.6 87 1022.3 12.1 SW 15.2 0.0 0.0
03:11 14.7 12.6 87 1022.2 13.0 SW 15.2 0.0 0.0
03:12 14.7 12.6 87 1022.3 12.1 W 15.2 0.0 0.0
03:13 14.7 12.6 87 1022.4 13.6 SW 15.2 0.0 0.0
03:14 14.7 12.6 87 1022.4 12.1 SSW 14.5 0.0 0.0
03:15 14.7 12.6 87 1022.4 13.0 SW 14.5 0.0 0.0
03:16 14.7 12.7 88 1022.5 10.7 SW 13.6 0.0 0.0
03:17 14.7 12.7 88 1022.5 13.6 W 13.6 0.0 0.0
03:18 14.7 12.7 88 1022.4 13.0 SW 13.6 0.0 0.0
03:19 14.7 12.7 88 1022.5 15.2 SW 15.2 0.0 0.0
03:20 14.7 12.7 88 1022.5 14.5 SSW 15.2 0.0 0.0
03:21 14.8 12.8 88 1022.5 13.6 S 15.2 0.0 0.0
03:23 14.8 12.8 88 1022.5 13.0 SW 15.2 0.0 0.0
03:24 14.8 12.8 88 1022.4 11.4 S 15.2 0.0 0.0
03:25 14.8 12.8 88 1022.4 11.4 W 15.2 0.0 0.0
03:26 14.8 12.8 88 1022.4 10.7 S 15.2 0.0 0.0
03:27 14.8 12.8 88 1022.5 10.7 SW 15.2 0.0 0.0
03:28 14.8 12.8 88 1022.4 9.8 SW 15.2 0.0 0.0
03:29 14.8 12.8 88 1022.4 10.7 S 15.2 0.0 0.0
03:30 14.8 12.8 88 1022.5 11.4 S 15.2 0.0 0.0
03:31 14.8 12.8 88 1022.4 11.4 S 15.2 0.0 0.0
03:32 14.8 12.8 88 1022.4 9.2 S 15.2 0.0 0.0
03:33 14.8 12.8 88 1022.3 7.6 SSW 15.2 0.0 0.0
03:34 14.8 12.8 88 1022.4 9.8 S 15.2 0.0 0.0
03:35 14.8 12.8 88 1022.4 9.8 S 15.2 0.0 0.0
03:36 14.9 12.9 88 1022.3 12.1 SW 15.2 0.0 0.0
03:37 14.9 13.1 89 1022.4 11.4 SW 15.2 0.0 0.0
03:38 14.9 12.9 88 1022.3 9.8 SW 15.2 0.0 0.0
03:39 14.9 13.1 89 1022.4 10.7 SW 15.2 0.0 0.0
03:40 14.9 13.1 89 1022.2 9.8 SW 12.1 0.0 0.0
03:41 14.9 13.1 89 1022.2 13.0 SW 13.0 0.0 0.0
03:43 14.9 13.1 89 1022.2 9.2 SW 13.0 0.0 0.0
03:44 14.9 13.1 89 1022.2 9.8 SW 13.0 0.0 0.0
03:45 14.9 13.1 89 1022.3 13.0 SW 13.0 0.0 0.0
03:46 14.9 13.1 89 1022.0 12.1 SW 13.0 0.0 0.0
03:47 15.0 13.2 89 1022.1 10.7 S 13.0 0.0 0.0
03:48 15.0 13.2 89 1022.0 9.2 SW 13.0 0.0 0.0
03:49 15.0 13.2 89 1022.0 11.4 SW 13.0 0.0 0.0
03:50 15.0 13.2 89 1022.1 12.1 SW 13.0 0.0 0.0
03:51 15.0 13.2 89 1022.2 10.7 WNW 13.0 0.0 0.0
03:52 15.0 13.2 89 1022.1 9.8 SW 13.0 0.0 0.0
03:53 15.0 13.2 89 1022.1 12.1 SW 14.5 0.0 0.0
03:54 15.0 13.2 89 1022.1 12.1 SW 14.5 0.0 0.0
03:55 15.0 13.2 89 1022.0 8.3 S 14.5 0.0 0.0
03:56 15.0 13.2 89 1021.9 10.7 SW 14.5 0.0 0.0
03:57 15.0 13.2 89 1021.9 14.5 SSE 14.5 0.0 0.0
03:58 15.0 13.2 89 1022.0 8.3 SE 14.5 0.0 0.0
03:59 15.0 13.2 89 1022.0 11.4 SW 14.5 0.0 0.0
04:00 15.0 13.2 89 1021.9 9.8 S 14.5 0.0 0.0
04:02 15.0 13.2 89 1022.0 8.3 S 14.5 0.0 0.0
04:03 15.0 13.4 90 1021.9 10.7 SW 14.5 0.0 0.0
04:04 15.0 13.4 90 1022.0 7.6 S 14.5 0.0 0.0
04:05 15.0 13.4 90 1022.0 14.5 S 14.5 0.0 0.0
04:06 15.0 13.4 90 1021.9 13.6 SW 14.5 0.0 0.0
04:07 15.0 13.4 90 1021.7 13.6 SW 14.5 0.0 0.0
04:08 15.0 13.4 90 1021.9 10.7 SW 14.5 0.0 0.0
04:09 15.1 13.5 90 1022.0 11.4 SW 14.5 0.0 0.0
04:10 15.1 13.5 90 1022.0 13.6 SW 14.5 0.0 0.0
04:11 15.1 13.5 90 1021.9 12.1 SW 14.5 0.0 0.0
04:12 15.1 13.5 90 1022.0 10.7 S 14.5 0.0 0.0
04:13 15.1 13.5 90 1021.8 9.8 N 14.5 0.0 0.0
04:14 15.1 13.5 90 1021.9 11.4 SW 14.5 0.0 0.0
04:15 15.1 13.5 90 1021.8 9.8 S 14.5 0.0 0.0
04:16 15.1 13.5 90 1021.8 11.4 W 13.6 0.0 0.0
04:17 15.1 13.5 90 1021.9 9.2 S 13.6 0.0 0.0
04:18 15.1 13.5 90 1021.9 9.8 SW 13.6 0.0 0.0
04:20 15.1 13.5 90 1021.9 12.1 SW 13.6 0.0 0.0
04:21 15.1 13.5 90 1021.9 10.7 S 12.1 0.0 0.0
04:22 15.1 13.5 90 1021.8 10.7 S 12.1 0.8 0.1
04:23 15.1 13.5 90 1021.9 11.4 SW 12.1 0.8 0.1
04:24 15.1 13.5 90 1021.7 12.1 SW 12.1 0.8 0.1
04:25 15.1 13.5 90 1021.9 13.0 S 13.0 0.8 0.1
04:26 15.1 13.5 90 1021.7 9.8 S 13.0 0.8 0.1
04:27 15.1 13.5 90 1021.7 9.8 W 13.0 0.0 0.1
04:28 15.1 13.6 91 1021.7 10.7 SW 13.0 0.0 0.1
04:29 15.1 13.5 90 1021.6 13.0 S 13.0 0.0 0.1
04:30 15.1 13.6 91 1021.5 11.4 SW 13.0 0.0 0.1
04:31 15.1 13.6 91 1021.5 11.4 SW 13.0 0.0 0.1
04:32 15.1 13.5 90 1021.7 8.3 W 13.0 0.0 0.1
04:33 15.2 13.7 91 1021.6 12.1 S 13.0 0.0 0.1
04:34 15.2 13.7 91 1021.6 12.1 S 13.0 0.0 0.1
04:35 15.2 13.7 91 1021.7 11.4 SSW 13.0 0.0 0.1
04:36 15.2 13.7 91 1021.6 11.4 SW 13.0 0.0 0.1
04:37 15.2 13.7 91 1021.6 12.1 SW 13.0 0.0 0.1
04:39 15.2 13.7 91 1021.6 9.2 S 13.6 0.0 0.1
04:40 15.2 13.7 91 1021.6 12.1 SSW 13.6 0.0 0.1
04:41 15.2 13.7 91 1021.5 7.6 S 13.6 0.0 0.1
04:42 15.2 13.7 91 1021.5 10.7 S 13.6 0.0 0.1
04:43 15.2 13.7 91 1021.5 12.1 S 13.6 0.0 0.1
04:44 15.2 13.7 91 1021.6 13.0 SW 13.6 0.0 0.1
04:45 15.2 13.7 91 1021.7 9.8 S 13.6 0.0 0.1
04:46 15.2 13.7 91 1021.6 11.4 SSE 13.6 0.0 0.1
04:47 15.2 13.7 91 1021.7 9.8 SE 13.6 0.0 0.1
04:48 15.2 13.7 91 1021.5 12.1 SW 13.6 0.0 0.1
04:49 15.2 13.7 91 1021.5 11.4 SW 13.6 0.0 0.1
04:50 15.2 13.7 91 1021.5 11.4 SW 13.6 0.0 0.1
04:51 15.3 13.8 91 1021.6 13.0 S 13.6 0.0 0.1
04:52 15.3 13.8 91 1021.6 10.7 S 13.6 0.0 0.1
04:53 15.3 13.8 91 1021.5 13.6 S 13.6 0.0 0.1
04:54 15.3 13.8 91 1021.5 11.4 SW 13.6 0.0 0.1
04:55 15.3 13.8 91 1021.4 11.4 S 13.6 0.0 0.1
04:56 15.3 13.8 91 1021.5 9.2 S 13.6 0.0 0.1
04:58 15.3 13.8 91 1021.3 11.4 SW 13.6 0.0 0.1
04:59 15.3 14.0 92 1021.4 9.8 S 13.6 0.0 0.1
05:00 15.3 13.8 91 1021.5 12.1 SW 13.6 0.0 0.1
05:01 15.3 13.8 91 1021.3 12.1 SW 13.6 0.0 0.1
05:02 15.3 13.8 91 1021.2 12.1 SW 13.6 0.0 0.1
05:03 15.3 13.8 91 1021.4 12.1 SW 13.0 0.0 0.1
05:04 15.3 13.8 91 1021.4 12.1 SW 13.0 0.0 0.1
05:05 15.3 14.0 92 1021.5 9.2 SW 13.0 0.0 0.1
05:06 15.3 14.0 92 1021.5 10.7 S 13.0 0.0 0.1
05:07 15.3 14.0 92 1021.5 9.2 S 12.1 0.0 0.1
05:08 15.3 14.0 92 1021.5 11.4 SW 12.1 0.0 0.1
05:09 15.3 14.0 92 1021.5 10.7 SW 13.0 0.0 0.1
05:10 15.3 14.0 92 1021.5 10.7 SW 13.0 0.0 0.1
05:11 15.3 14.0 92 1021.6 10.7 SW 14.5 0.0 0.1
05:12 15.3 14.0 92 1021.5 10.7 SE 14.5 0.0 0.1
05:13 15.3 14.0 92 1021.5 9.8 SE 14.5 0.0 0.1
05:14 15.3 14.0 92 1021.5 10.7 SSW 14.5 0.0 0.1
05:15 15.4 14.1 92 1021.2 12.1 SW 14.5 0.0 0.1
05:16 15.4 14.1 92 1021.4 12.1 S 14.5 0.0 0.1
05:17 15.4 14.1 92 1021.4 9.2 SW 14.5 0.0 0.1
05:19 15.4 14.1 92 1021.3 8.3 S 14.5 0.0 0.1
05:20 15.4 14.1 92 1021.3 12.1 WNW 14.5 0.0 0.1
05:21 15.4 14.1 92 1021.2 14.5 S 14.5 0.0 0.1
05:22 15.4 14.1 92 1021.1 13.0 SW 14.5 0.0 0.1
05:23 15.4 14.1 92 1021.2 10.7 SW 14.5 0.0 0.1
05:24 15.4 14.1 92 1021.3 9.2 WSW 14.5 0.0 0.1
05:25 15.4 14.1 92 1021.2 9.8 S 14.5 0.0 0.1
05:26 15.4 14.1 92 1021.2 10.7 S 14.5 0.0 0.1
05:27 15.4 14.1 92 1021.3 13.6 S 14.5 0.0 0.1
05:28 15.4 14.1 92 1021.2 10.7 S 14.5 0.0 0.1
05:29 15.4 14.1 92 1021.1 9.8 S 14.5 0.0 0.1
05:30 15.4 14.1 92 1021.1 9.8 S 14.5 0.0 0.1
05:31 15.4 14.1 92 1021.1 11.4 S 14.5 0.0 0.1
05:32 15.4 14.1 92 1021.2 14.5 SW 14.5 0.0 0.1
05:33 15.4 14.1 92 1021.3 13.6 SW 14.5 0.0 0.1
05:34 15.4 14.1 92 1021.2 10.7 S 14.5 0.0 0.1
05:35 15.4 14.1 92 1021.4 9.8 S 14.5 0.0 0.1
05:36 15.4 14.1 92 1021.2 11.4 S 14.5 0.0 0.1
05:38 15.4 14.1 92 1021.1 13.6 S 18.3 0.0 0.1
05:39 15.4 14.3 93 1021.2 13.6 SW 18.3 0.0 0.1
05:40 15.4 14.3 93 1021.3 10.7 S 18.3 0.0 0.1
05:41 15.4 14.3 93 1021.1 13.6 SW 18.3 0.0 0.1
05:42 15.4 14.3 93 1021.2 7.6 S 18.3 0.0 0.1
05:43 15.4 14.3 93 1021.1 8.3 SW 18.3 0.0 0.1
05:44 15.4 14.3 93 1021.2 7.6 SW 18.3 0.0 0.1
05:45 15.4 14.3 93 1021.2 11.4 SW 18.3 0.0 0.1
05:46 15.4 14.3 93 1021.2 9.2 SW 18.3 0.0 0.1
05:47 15.4 14.3 93 1021.1 13.0 N 13.6 0.0 0.1
05:48 15.4 14.3 93 1021.3 15.9 S 15.9 0.0 0.1
05:49 15.4 14.3 93 1021.2 9.2 SW 15.9 0.0 0.1
05:50 15.4 14.3 93 1021.3 12.1 S 15.9 0.0 0.1
05:51 15.4 14.3 93 1021.2 13.0 SW 15.9 0.0 0.1
05:52 15.4 14.3 93 1021.2 14.5 SE 15.9 0.0 0.1
05:53 15.4 14.3 93 1021.4 9.8 SE 15.9 0.0 0.1
05:54 15.4 14.3 93 1021.3 12.1 S 15.9 0.0 0.1
05:55 15.4 14.3 93 1021.3 12.1 S 15.9 0.0 0.1
05:56 15.4 14.3 93 1021.3 9.8 SW 15.9 0.0 0.1
05:58 15.4 14.3 93 1021.4 14.5 S 15.9 0.0 0.1
05:59 15.5 14.4 93 1021.3 9.8 S 14.5 0.0 0.1
06:00 15.5 14.4 93 1021.3 13.0 S 14.5 0.0 0.1
06:01 15.5 14.4 93 1021.5 13.0 S 14.5 0.0 0.1
06:02 15.5 14.4 93 1021.4 12.1 SW 14.5 0.0 0.1
06:03 15.5 14.4 93 1021.3 11.4 SW 14.5 0.0 0.1
06:04 15.5 14.4 93 1021.3 12.1 SW 14.5 0.0 0.1
06:05 15.5 14.4 93 1021.4 13.0 SW 14.5 0.0 0.1
06:06 15.5 14.4 93 1021.4 12.1 SW 14.5 0.0 0.1
06:07 15.5 14.4 93 1021.4 13.6 NW 14.5 0.0 0.1
06:08 15.5 14.4 93 1021.3 13.6 SW 13.6 0.0 0.1
06:09 15.6 14.6 94 1021.4 13.0 S 15.9 0.0 0.1
06:10 15.6 14.5 93 1021.4 8.3 SW 15.9 0.0 0.1
06:11 15.6 14.6 94 1021.4 9.8 SW 15.9 0.0 0.1
06:12 15.6 14.6 94 1021.4 10.7 SW 15.9 0.0 0.1
06:13 15.6 14.6 94 1021.4 15.9 S 15.9 0.0 0.1
06:14 15.6 14.6 94 1021.4 12.1 SW 15.9 0.0 0.1
06:15 15.6 14.6 94 1021.3 15.9 S 15.9 0.0 0.1
06:16 15.6 14.6 94 1021.5 12.1 SW 15.9 0.0 0.1
06:17 15.6 14.6 94 1021.4 11.4 S 15.9 0.0 0.1
06:18 15.6 14.6 94 1021.3 15.2 SW 15.9 0.0 0.1
06:19 15.6 14.6 94 1021.4 15.2 SSW 15.9 0.0 0.1
06:21 15.6 14.6 94 1021.3 15.2 SW 15.9 0.0 0.1
06:22 15.6 14.6 94 1021.3 12.1 NW 18.3 0.0 0.1
06:23 15.6 14.6 94 1021.4 9.2 S 18.3 0.0 0.1
06:24 15.6 14.6 94 1021.4 14.5 SW 18.3 0.0 0.1
06:25 15.6 14.6 94 1021.5 11.4 SW 18.3 0.0 0.1
06:26 15.6 14.6 94 1021.3 13.0 S 18.3 0.0 0.1
06:27 15.6 14.6 94 1021.3 6.9 SW 18.3 0.0 0.1
06:28 15.6 14.6 94 1021.4 11.4 SW 18.3 0.0 0.1
06:29 15.6 14.6 94 1021.3 9.2 S 18.3 0.0 0.1
06:30 15.6 14.6 94 1021.3 16.8 SW 18.3 0.0 0.1
06:31 15.6 14.6 94 1021.4 13.0 S 18.3 0.0 0.1
06:32 15.6 14.6 94 1021.3 12.1 S 18.3 0.0 0.1
06:33 15.6 14.6 94 1021.5 12.1 SW 16.8 0.0 0.1
06:35 15.6 14.6 94 1021.4 11.4 S 16.8 0.0 0.1
06:36 15.7 14.7 94 1021.4 9.2 SW 16.8 0.0 0.1
06:37 15.6 14.6 94 1021.3 12.1 SW 16.8 0.0 0.1
06:38 15.7 14.7 94 1021.5 9.2 SW 16.8 0.0 0.1
06:39 15.7 14.7 94 1021.5 9.8 SW 16.8 0.0 0.1
06:40 15.7 14.7 94 1021.4 10.7 SW 13.0 0.0 0.1
06:41 15.7 14.7 94 1021.4 9.8 S 13.0 0.0 0.1
06:42 15.7 14.7 94 1021.4 9.8 S 13.0 0.0 0.1
06:43 15.7 14.7 94 1021.5 11.4 SW 13.0 0.0 0.1
06:44 15.7 14.7 94 1021.5 9.8 SW 13.0 0.0 0.1
06:45 15.7 14.7 94 1021.6 11.4 SSW 13.0 0.0 0.1
06:46 15.7 14.7 94 1021.6 12.1 SW 13.0 0.0 0.1
06:47 15.7 14.9 95 1021.5 11.4 SW 13.0 0.0 0.1
06:49 15.7 14.9 95 1021.6 11.4 SW 15.2 0.0 0.1
06:50 15.7 14.7 94 1021.6 11.4 SW 15.2 0.0 0.1
06:51 15.7 14.7 94 1021.5 12.1 S 15.2 0.0 0.1
06:52 15.7 14.9 95 1021.5 12.1 SSW 15.2 0.0 0.1
06:53 15.7 14.9 95 1021.4 15.9 SW 15.9 0.0 0.1
06:54 15.7 14.9 95 1021.6 15.9 SW 15.9 0.0 0.1
06:55 15.7 14.9 95 1021.5 11.4 SW 15.9 0.0 0.1
06:56 15.7 14.9 95 1021.6 13.6 SW 15.9 0.0 0.1
06:57 15.7 14.9 95 1021.6 15.2 SW 15.9 0.0 0.1
06:58 15.7 14.9 95 1021.6 11.4 SE 15.9 0.0 0.1
06:59 15.7 14.9 95 1021.7 13.0 WSW 15.9 0.0 0.1
07:00 15.7 14.9 95 1021.6 9.8 SW 15.9 0.0 0.1
07:01 15.7 14.9 95 1021.6 9.8 SW 15.9 0.0 0.1
07:02 15.7 14.9 95 1021.6 10.7 SW 15.9 0.0 0.1
07:03 15.7 14.9 95 1021.6 13.0 SW 15.9 0.0 0.1
07:04 15.7 14.9 95 1021.6 8.3 SE 15.9 0.0 0.1
07:05 15.7 14.9 95 1021.7 15.2 S 15.2 0.0 0.1
07:06 15.7 14.9 95 1021.6 14.5 SSW 15.2 0.0 0.1
07:07 15.7 14.9 95 1021.6 14.5 SW 15.2 0.8 0.1
07:08 15.7 14.9 95 1021.7 14.5 WNW 15.2 0.8 0.1
07:09 15.7 14.9 95 1021.6 12.1 SW 15.2 0.8 0.1
07:10 15.7 14.9 95 1021.8 13.6 SW 15.2 0.8 0.1
07:11 15.7 14.9 95 1021.8 16.8 SW 16.8 0.8 0.1
07:12 15.7 14.9 95 1021.6 12.1 SW 16.8 0.0 0.1
07:13 15.7 14.9 95 1021.7 14.5 SW 16.8 0.0 0.1
07:14 15.7 14.9 95 1021.6 12.1 SW 16.8 0.0 0.1
07:15 15.7 14.9 95 1021.6 14.5 S 16.8 0.0 0.1
07:16 15.8 15.0 95 1021.7 13.6 SW 16.8 0.0 0.1
07:17 15.8 15.0 95 1021.5 13.6 S 16.8 0.0 0.1
07:18 15.8 15.0 95 1021.6 13.6 S 16.8 0.0 0.1
07:20 15.8 15.0 95 1021.6 9.8 SW 16.8 0.0 0.1
07:21 15.8 15.0 95 1021.6 11.4 SW 16.8 0.0 0.1
07:22 15.8 15.2 96 1021.7 8.3 SSW 14.5 0.0 0.1
07:23 15.8 15.2 96 1021.5 14.5 S 14.5 0.0 0.1
07:24 15.8 15.2 96 1021.5 12.1 SW 14.5 0.0 0.1
07:25 15.8 15.2 96 1021.6 10.7 SW 14.5 0.0 0.1
07:26 15.8 15.2 96 1021.6 11.4 SW 14.5 0.0 0.1
07:27 15.8 15.2 96 1021.6 11.4 SW 14.5 0.0 0.1
07:28 15.8 15.2 96 1021.6 10.7 SW 14.5 0.0 0.1
07:29 15.8 15.2 96 1021.6 15.2 SW 15.2 0.0 0.1
07:30 15.8 15.2 96 1021.8 13.0 WSW 15.2 0.0 0.1
07:31 15.8 15.2 96 1021.5 13.0 S 15.2 0.0 0.1
07:32 15.8 15.2 96 1021.5 11.4 SW 15.2 0.0 0.1
07:33 15.8 15.2 96 1021.6 11.4 SW 15.2 0.0 0.1
07:34 15.9 15.3 96 1021.6 8.3 SW 15.2 0.0 0.1
07:35 15.8 15.2 96 1021.7 9.8 SSW 15.2 0.0 0.1
07:36 15.9 15.3 96 1021.7 9.2 N 15.2 0.0 0.1
07:37 15.9 15.3 96 1021.6 15.9 SW 15.9 0.0 0.1
07:38 15.9 15.3 96 1021.6 8.3 SW 15.9 0.0 0.1
07:39 15.9 15.3 96 1021.7 13.0 S 15.9 0.0 0.1
07:40 15.9 15.3 96 1021.6 13.0 SW 15.9 0.0 0.1
07:41 15.9 15.3 96 1021.8 10.7 S 15.9 0.0 0.1
07:42 15.9 15.3 96 1021.9 12.1 S 15.9 0.0 0.1
07:43 15.9 15.3 96 1021.7 15.9 W 15.9 0.0 0.1
07:44 15.9 15.3 96 1021.8 15.2 SW 15.9 0.0 0.1
07:45 15.9 15.3 96 1021.8 9.2 S 15.9 0.0 0.1
07:46 15.9 15.3 96 1021.9 13.0 SW 15.9 0.0 0.1
07:47 15.9 15.3 96 1021.8 15.9 SW 15.9 0.0 0.1
07:48 15.9 15.3 96 1021.7 11.4 S 15.9 0.0 0.1
07:49 16.0 15.4 96 1021.8 11.4 SW 15.9 0.0 0.1
07:50 16.0 15.4 96 1021.7 9.8 SW 15.9 0.0 0.1
07:51 16.0 15.4 96 1021.7 14.5 SW 15.9 0.0 0.1
07:52 16.0 15.4 96 1021.8 9.2 S 15.9 0.0 0.1
07:53 16.0 15.4 96 1021.8 10.7 SW 15.9 0.0 0.1
07:54 16.0 15.4 96 1021.8 13.6 SW 15.9 0.0 0.1
07:55 16.0 15.4 96 1021.8 9.8 W 15.9 0.0 0.1
07:56 16.0 15.4 96 1021.8 9.8 W 15.9 0.0 0.1
07:57 16.0 15.5 97 1021.9 10.7 SW 14.5 0.0 0.1
07:58 16.0 15.4 96 1021.9 9.8 SW 14.5 0.0 0.1
07:59 16.0 15.4 96 1022.0 7.6 S 14.5 0.0 0.1
08:00 16.0 15.5 97 1022.0 19.0 SW 19.0 0.0 0.1
08:01 16.0 15.5 97 1021.9 10.7 WNW 19.0 0.0 0.1
08:02 16.0 15.5 97 1021.8 13.6 S 19.0 0.0 0.1
08:03 16.1 15.6 97 1021.9 13.6 S 19.0 0.0 0.1
08:04 16.1 15.6 97 1021.9 10.7 SW 19.0 0.0 0.1
08:05 16.1 15.6 97 1021.9 13.6 SW 19.0 0.0 0.1
08:06 16.2 15.7 97 1021.9 8.3 SW 19.0 0.0 0.2
08:07 16.1 15.6 97 1022.0 15.2 S 19.0 0.8 0.2
08:08 16.1 15.6 97 1021.8 10.7 SW 19.0 0.8 0.2
08:09 16.1 15.6 97 1022.0 13.6 S 19.0 0.8 0.2
08:10 16.1 15.6 97 1022.0 13.6 S 15.2 0.8 0.2
08:11 16.1 15.6 97 1021.9 9.8 S 15.2 0.8 0.2
08:12 16.1 15.6 97 1022.0 16.8 NW 16.8 0.0 0.2
08:13 16.1 15.6 97 1022.0 10.7 SW 16.8 0.0 0.2
08:14 16.1 15.6 97 1021.8 16.8 SW 16.8 0.0 0.2
08:15 16.1 15.6 97 1022.0 15.2 NW 16.8 0.0 0.2
08:16 16.1 15.6 97 1021.9 11.4 S 16.8 0.0 0.2
08:17 16.1 15.6 97 1022.0 11.4 SW 16.8 0.0 0.2
08:18 16.1 15.6 97 1022.1 9.2 SW 16.8 0.0 0.2
08:19 16.1 15.6 97 1022.1 10.7 SW 16.8 0.0 0.2
08:20 16.1 15.6 97 1022.1 9.2 SSW 16.8 0.0 0.2
08:21 16.1 15.6 97 1022.1 10.7 S 16.8 0.0 0.2
08:22 16.1 15.6 97 1022.0 12.1 W 16.8 0.0 0.2
08:23 16.1 15.6 97 1022.1 10.7 W 16.8 0.0 0.2
08:24 16.1 15.6 97 1022.0 14.5 SW 15.2 0.0 0.2
08:25 16.1 15.6 97 1022.0 14.5 S 14.5 0.0 0.2
08:26 16.1 15.6 97 1022.1 8.3 SW 14.5 0.0 0.2
08:27 16.1 15.6 97 1022.0 9.8 SW 14.5 0.0 0.2
08:28 16.1 15.6 97 1022.2 9.8 SW 17.4 0.0 0.2
08:29 16.1 15.6 97 1022.1 11.4 W 17.4 0.0 0.2
08:30 16.1 15.6 97 1022.1 12.1 SW 17.4 0.0 0.2
08:31 16.1 15.6 97 1022.1 13.0 S 17.4 0.0 0.2
08:32 16.1 15.6 97 1022.0 9.2 SW 17.4 0.0 0.2
08:33 16.1 15.6 97 1022.1 14.5 S 17.4 0.0 0.2
08:34 16.1 15.6 97 1022.1 9.2 SW 17.4 0.0 0.2
08:35 16.1 15.6 97 1022.2 13.0 SW 17.4 0.0 0.2
08:36 16.2 15.7 97 1022.1 13.6 SW 17.4 0.0 0.2
08:37 16.2 15.7 97 1022.3 13.0 S 17.4 0.0 0.2
08:38 16.2 15.7 97 1022.3 13.0 S 15.2 0.0 0.2
08:39 16.2 15.9 98 1022.2 13.6 SW 15.2 0.0 0.2
08:40 16.2 15.9 98 1022.1 11.4 SW 15.9 0.0 0.2
08:41 16.2 15.9 98 1022.2 14.5 SW 15.9 0.0 0.2
08:42 16.2 15.9 98 1022.2 14.5 SW 15.9 0.0 0.2
08:43 16.2 15.9 98 1022.2 13.0 S 15.9 0.0 0.2
08:44 16.2 15.9 98 1022.3 12.1 SW 15.9 0.8 0.3
08:45 16.2 15.9 98 1022.3 11.4 SW 15.9 0.8 0.3
08:46 16.2 15.9 98 1022.3 8.3 S 15.9 0.8 0.3
08:47 16.2 15.9 98 1022.4 9.8 SW 15.9 0.8 0.3
08:48 16.2 15.9 98 1022.4 13.6 SW 15.9 0.8 0.3
08:49 16.2 15.9 98 1022.4 12.1 SW 15.9 0.0 0.3
08:50 16.2 15.9 98 1022.3 11.4 SW 15.9 0.0 0.3
08:51 16.2 15.9 98 1022.3 9.2 SW 15.9 0.0 0.3
08:52 16.3 16.0 98 1022.4 9.2 WSW 15.9 0.0 0.3
08:53 16.2 15.9 98 1022.4 11.4 SW 15.9 0.0 0.3
08:54 16.3 16.0 98 1022.4 14.5 SW 14.5 0.0 0.3
08:55 16.3 16.0 98 1022.4 12.1 SW 14.5 0.0 0.3
08:56 16.3 16.0 98 1022.5 13.0 WSW 14.5 0.0 0.3
08:57 16.3 16.0 98 1022.4 15.2 WNW 15.2 0.0 0.3
08:58 16.3 16.0 98 1022.4 14.5 SW 15.2 0.0 0.3
08:59 16.3 16.0 98 1022.4 12.1 SW 15.2 0.0 0.3
09:00 16.3 16.0 98 1022.4 15.2 SW 15.2 0.0 0.3
09:01 16.3 16.0 98 1022.3 9.2 SW 15.2 0.0 0.3
09:02 16.3 16.0 98 1022.4 15.9 NW 15.9 0.0 0.3
09:03 16.3 16.0 98 1022.5 9.8 SW 15.9 0.0 0.3
09:04 16.3 16.0 98 1022.2 9.2 W 15.9 0.0 0.3
09:05 16.4 16.1 98 1022.3 15.9 SW 15.9 0.0 0.3
09:06 16.4 16.1 98 1022.2 14.5 SW 15.9 0.0 0.3
09:07 16.4 16.1 98 1022.2 13.0 WSW 15.9 0.0 0.3
09:08 16.4 16.1 98 1022.3 8.3 SW 15.9 0.0 0.3
09:09 16.4 16.1 98 1022.3 9.2 NW 15.9 0.0 0.3
09:10 16.4 16.1 98 1022.3 9.2 NW 15.9 0.0 0.3
09:11 16.4 16.1 98 1022.3 12.1 SW 15.9 0.0 0.3
09:12 16.4 16.3 99 1022.4 13.6 SW 15.9 0.0 0.3
09:13 16.4 16.3 99 1022.4 15.9 SW 15.9 0.0 0.3
09:14 16.4 16.3 99 1022.3 12.1 W 15.9 0.0 0.3
09:15 16.5 16.2 98 1022.4 9.8 SW 15.9 0.0 0.3
09:16 16.4 16.3 99 1022.3 10.7 SW 15.9 0.0 0.3
09:17 16.4 16.3 99 1022.3 13.0 SW 15.9 0.0 0.3
09:18 16.5 16.4 99 1022.5 9.8 NNE 15.9 0.0 0.3
09:19 16.5 16.4 99 1022.4 10.7 SW 15.9 0.0 0.3
09:20 16.5 16.4 99 1022.5 12.1 SW 15.9 0.0 0.3
09:21 16.5 16.4 99 1022.4 10.7 SW 15.9 0.0 0.3
09:22 16.5 16.4 99 1022.3 13.0 SW 15.9 0.0 0.3
09:23 16.5 16.4 99 1022.5 7.6 S 13.0 0.0 0.3
09:24 16.5 16.4 99 1022.4 9.2 S 13.0 0.0 0.3
09:25 16.6 16.5 99 1022.4 16.8 WNW 16.8 0.0 0.3
09:26 16.6 16.5 99 1022.4 16.8 WNW 16.8 0.0 0.3
09:27 16.6 16.5 99 1022.4 6.9 S 16.8 0.0 0.3
09:28 16.6 16.5 99 1022.5 9.8 SW 16.8 0.0 0.3
09:29 16.6 16.5 99 1022.5 10.7 SW 16.8 0.0 0.3
09:30 16.6 16.5 99 1022.5 10.7 S 16.8 0.0 0.3
09:31 16.6 16.5 99 1022.4 8.3 SW 16.8 0.0 0.3
09:32 16.6 16.5 99 1022.5 12.1 SW 16.8 0.0 0.3
09:33 16.6 16.5 99 1022.5 11.4 WNW 16.8 0.0 0.3
09:34 16.6 16.5 99 1022.5 9.2 SSW 16.8 0.0 0.3
09:35 16.6 16.5 99 1022.5 10.7 W 16.8 0.0 0.3
09:36 16.6 16.5 99 1022.6 10.7 NW 12.1 0.0 0.3
09:37 16.6 16.5 99 1022.6 12.1 N 13.6 0.0 0.3
09:38 16.6 16.5 99 1022.5 13.0 W 13.6 0.0 0.3
09:39 16.6 16.5 99 1022.6 13.0 SW 13.6 0.0 0.3
09:40 16.6 16.5 99 1022.7 9.2 SW 13.6 0.0 0.3
09:41 16.6 16.5 99 1022.8 11.4 SW 13.6 0.0 0.3
09:42 16.7 16.6 99 1022.8 9.8 SW 13.6 0.0 0.3
09:43 16.7 16.6 99 1022.6 12.1 N 13.6 0.0 0.3
09:44 16.7 16.6 99 1022.7 11.4 SW 13.6 0.0 0.3
09:45 16.7 16.6 99 1022.8 13.0 NW 13.6 0.0 0.3
09:46 16.7 16.6 99 1022.7 12.1 SW 13.6 0.0 0.3
09:47 16.7 16.6 99 1022.8 7.6 W 13.6 0.0 0.3
09:48 16.7 16.6 99 1022.8 7.6 SW 13.0 0.0 0.3
09:49 16.7 16.6 99 1022.8 8.3 WSW 13.0 0.0 0.3
09:50 16.7 16.6 99 1022.9 10.7 WNW 13.0 0.0 0.3
09:51 16.7 16.6 99 1022.9 12.1 SW 13.0 0.0 0.3
09:52 16.7 16.6 99 1022.8 16.8 W 16.8 0.0 0.3
09:53 16.7 16.6 99 1022.9 11.4 SW 16.8 0.0 0.3
09:54 16.7 16.6 99 1022.9 9.2 SW 16.8 0.0 0.3
09:55 16.7 16.6 99 1022.8 15.2 SW 16.8 0.0 0.3
09:56 16.7 16.6 99 1022.9 12.1 WSW 16.8 0.0 0.3
09:57 16.7 16.6 99 1022.8 9.8 S 16.8 0.8 0.3
09:58 16.7 16.6 99 1022.9 11.4 SW 16.8 0.8 0.3
09:59 16.7 16.6 99 1022.9 13.0 SW 16.8 0.8 0.3
10:00 16.7 16.6 99 1022.9 10.7 SW 16.8 0.8 0.3
10:01 16.7 16.6 99 1023.0 10.7 SW 16.8 0.8 0.3
10:02 16.7 16.6 99 1023.0 9.2 W 16.8 0.0 0.3
10:03 16.7 16.6 99 1023.0 11.4 SW 15.2 0.0 0.3
10:04 16.7 16.6 99 1023.0 9.2 SE 15.2 0.0 0.3
10:05 16.7 16.6 99 1023.0 10.7 SW 15.2 0.0 0.3
10:06 16.7 16.6 99 1023.0 11.4 W 13.0 0.0 0.3
10:07 16.7 16.6 99 1023.0 8.3 SW 13.0 0.0 0.3
10:08 16.7 16.6 99 1023.1 12.1 SW 13.0 0.0 0.3
10:09 16.7 16.6 99 1023.0 13.0 SW 13.0 0.0 0.3
10:10 16.7 16.6 99 1023.0 13.0 SW 13.0 0.0 0.3
10:11 16.7 16.6 99 1023.0 13.6 SW 13.6 0.0 0.3
10:12 16.7 16.6 99 1023.0 10.7 SW 13.6 0.0 0.3
10:13 16.7 16.6 99 1023.1 7.6 W 13.6 0.0 0.3
10:14 16.7 16.6 99 1022.8 13.0 S 13.6 0.0 0.3
10:15 16.7 16.6 99 1023.0 9.2 SW 13.6 0.0 0.3
10:16 16.7 16.6 99 1023.0 12.1 SW 13.6 0.0 0.3
10:17 16.7 16.6 99 1023.0 11.4 SW 13.6 0.0 0.3
10:18 16.7 16.6 99 1023.1 10.7 SW 13.6 0.0 0.3
10:19 16.7 16.6 99 1023.0 10.7 SSW 13.6 0.0 0.3
10:20 16.7 16.6 99 1023.0 9.8 S 13.6 0.0 0.3
10:21 16.7 16.6 99 1022.9 6.9 SW 13.0 0.0 0.3
10:22 16.7 16.6 99 1022.9 10.7 S 13.0 0.0 0.3
10:23 16.7 16.6 99 1022.9 10.7 SW 13.0 0.0 0.3
10:24 16.7 16.6 99 1022.9 11.4 NNW 12.1 0.0 0.3
10:25 16.8 16.7 99 1023.1 10.7 S 12.1 0.0 0.3
10:26 16.8 16.7 99 1022.9 9.2 SW 12.1 0.0 0.3
10:27 16.8 16.7 99 1022.8 9.8 SW 12.1 0.0 0.3
10:28 16.8 16.7 99 1023.0 13.0 SW 13.0 0.0 0.3
10:29 16.8 16.7 99 1022.9 12.1 SW 13.0 0.0 0.3
10:30 16.8 16.7 99 1022.9 9.2 SW 13.0 0.0 0.3
10:31 16.8 16.7 99 1022.8 9.8 E 13.0 0.8 0.4
10:32 16.8 16.7 99 1023.1 12.1 WNW 13.0 0.8 0.4
10:33 16.8 16.7 99 1022.9 11.4 NW 13.0 0.8 0.4
10:34 16.8 16.7 99 1023.0 9.2 W 13.0 0.8 0.4
10:35 16.8 16.7 99 1023.0 12.1 SW 13.0 0.8 0.4
10:36 16.8 16.7 99 1022.9 11.4 SW 13.0 0.0 0.4
10:37 16.8 16.7 99 1023.0 9.2 W 13.0 0.0 0.4
10:38 16.8 16.7 99 1023.0 11.4 NW 13.0 0.0 0.4
10:39 16.8 16.7 99 1023.0 13.0 SW 13.0 0.0 0.4
10:40 16.8 16.7 99 1023.1 10.7 NW 13.0 0.0 0.4
10:41 16.9 16.8 99 1023.1 11.4 SW 13.0 0.0 0.4
10:42 16.9 16.8 99 1023.2 9.8 S 13.0 0.0 0.4
10:43 16.9 16.8 99 1023.2 8.3 SW 13.0 0.0 0.4
10:44 16.9 16.8 99 1023.1 6.0 SW 13.0 0.0 0.4
10:45 16.9 16.8 99 1023.1 13.0 SW 13.0 0.0 0.4
10:46 16.9 16.8 99 1023.0 14.5 WSW 14.5 0.0 0.4
10:47 16.9 16.8 99 1023.0 13.0 SW 14.5 0.0 0.4
10:48 16.9 16.8 99 1022.9 11.4 SW 14.5 0.0 0.4
10:49 17.0 16.9 99 1023.0 13.6 SW 15.9 0.0 0.4
10:50 16.9 16.8 99 1023.0 12.1 SW 15.9 0.0 0.4
10:51 17.0 16.9 99 1023.0 13.6 SSW 15.9 0.0 0.4
10:52 17.0 16.9 99 1023.1 13.0 SW 15.9 0.0 0.4
10:53 17.0 16.9 99 1022.8 14.5 SW 15.9 0.0 0.4
10:54 17.0 16.9 99 1022.9 15.2 S 15.9 0.0 0.4
10:55 17.0 16.9 99 1022.8 13.0 S 15.9 0.0 0.4
10:56 17.0 16.9 99 1023.1 16.8 S 16.8 0.0 0.4
10:57 17.0 16.9 99 1023.0 15.9 SW 16.8 0.0 0.4
10:58 17.0 16.9 99 1023.0 13.0 NNE 16.8 0.0 0.4
10:59 17.0 16.9 99 1022.9 15.9 SW 16.8 0.0 0.4
11:00 17.0 16.9 99 1023.1 14.5 WSW 16.8 0.0 0.4
11:02 17.0 16.9 99 1022.8 13.6 SW 16.8 0.0 0.4
11:03 17.1 17.0 99 1022.8 10.7 SW 16.8 0.0 0.4
11:04 17.1 17.0 99 1022.9 16.8 W 16.8 0.0 0.4
11:05 17.1 17.0 99 1022.9 13.6 SW 16.8 0.0 0.4
11:06 17.1 17.0 99 1022.8 12.1 SW 16.8 0.0 0.4
11:07 17.1 17.0 99 1022.7 15.9 W 16.8 0.0 0.4
11:08 17.1 17.0 99 1022.8 13.0 NNW 16.8 0.0 0.4
11:09 17.1 17.0 99 1022.8 6.9 SW 16.8 0.0 0.4
11:10 17.2 17.1 99 1022.8 15.9 S 16.8 0.0 0.4
11:11 17.2 17.1 99 1022.9 19.7 SW 19.7 0.0 0.4
11:12 17.2 17.1 99 1022.9 13.6 NW 19.7 0.0 0.4
11:13 17.2 17.1 99 1023.0 14.5 S 19.7 0.0 0.4
11:14 17.2 17.1 99 1022.9 13.0 S 19.7 0.0 0.4
11:15 17.2 17.1 99 1022.9 9.8 SW 19.7 0.0 0.4
11:16 17.1 17.0 99 1023.0 12.1 W 19.7 0.0 0.4
11:17 17.1 17.0 99 1023.0 15.2 SW 19.7 0.0 0.4
11:18 17.1 17.0 99 1023.0 9.2 WSW 19.7 0.0 0.4
11:19 17.1 17.0 99 1023.0 13.0 SW 19.7 0.0 0.4
11:20 17.1 17.0 99 1023.0 13.0 SW 19.7 0.0 0.4
11:21 17.1 17.0 99 1023.1 11.4 WNW 19.7 0.0 0.4
11:22 17.1 17.0 99 1023.1 12.1 NW 15.2 0.0 0.4
11:23 17.1 17.0 99 1023.0 9.8 SSW 15.2 0.0 0.4
11:25 17.1 17.0 99 1023.0 13.0 SW 15.2 0.0 0.4
11:26 17.1 17.0 99 1023.0 11.4 S 15.2 0.0 0.4
11:27 17.1 17.0 99 1023.0 13.6 W 15.2 0.0 0.4
11:28 17.1 17.0 99 1023.1 9.8 SW 15.2 0.0 0.4
11:29 17.1 17.0 99 1023.0 15.2 SW 15.2 0.0 0.4
11:30 17.1 17.0 99 1023.0 13.6 S 15.2 0.0 0.4
11:31 17.1 17.0 99 1023.0 13.0 SW 15.2 0.0 0.4
11:32 17.1 17.0 99 1023.0 13.6 S 15.2 0.0 0.4
11:33 17.1 17.0 99 1023.0 9.2 S 15.2 0.0 0.4
11:34 17.1 17.0 99 1023.0 9.8 SW 15.2 0.0 0.4
11:35 17.1 17.0 99 1023.1 15.2 SW 15.2 0.0 0.4
11:36 17.1 17.0 99 1023.1 6.9 SE 15.2 0.0 0.4
11:37 17.1 17.0 99 1023.1 9.8 SW 15.2 0.0 0.4
11:38 17.1 17.0 99 1023.0 18.3 SW 18.3 0.0 0.4
11:39 17.1 17.0 99 1023.1 17.4 SW 18.3 0.0 0.4
11:40 17.1 17.0 99 1023.0 14.5 SW 18.3 0.0 0.4
11:41 17.1 17.0 99 1023.0 9.8 SW 18.3 0.0 0.4
11:42 17.1 17.0 99 1023.2 14.5 S 18.3 0.0 0.4
11:43 17.1 17.0 99 1023.0 14.5 SW 18.3 0.0 0.4
11:44 17.1 17.0 99 1023.2 12.1 SW 18.3 0.0 0.4
11:45 17.1 17.0 99 1023.2 9.8 S 18.3 0.0 0.4
11:46 17.1 17.0 99 1023.3 10.7 SW 18.3 0.0 0.4
11:47 17.1 17.0 99 1023.2 7.6 SW 18.3 0.0 0.4
11:48 17.1 17.0 99 1023.2 11.4 SSW 18.3 0.0 0.4
11:49 17.1 17.0 99 1023.2 10.7 E 18.3 0.0 0.4
11:50 17.2 17.1 99 1023.1 11.4 W 18.3 0.0 0.4
11:51 17.2 17.1 99 1023.0 11.4 SW 18.3 0.0 0.4
11:52 17.2 17.1 99 1023.2 15.2 WSW 18.3 0.0 0.4
11:53 17.2 17.1 99 1023.1 15.2 SW 18.3 0.0 0.4
11:55 17.2 17.1 99 1023.1 11.4 S 15.2 0.0 0.4
11:56 17.2 17.1 99 1023.2 14.5 S 15.2 0.0 0.4
11:57 17.2 17.1 99 1023.1 19.7 S 19.7 0.0 0.4
11:58 17.2 17.1 99 1023.2 15.2 SW 19.7 0.0 0.4
11:59 17.2 17.1 99 1023.1 13.6 S 19.7 0.0 0.4
12:00 17.2 17.1 99 1023.1 15.9 SSW 19.7 0.0 0.4
12:01 17.2 17.1 99 1023.1 15.9 SSW 19.7 0.0 0.4
12:02 17.2 17.1 99 1023.2 16.8 S 19.7 0.0 0.4
12:03 17.2 17.1 99 1023.2 19.0 S 19.7 0.0 0.4
12:04 17.2 17.1 99 1023.1 19.0 SW 19.7 0.0 0.4
12:05 17.2 17.1 99 1023.3 12.1 S 19.7 0.0 0.4
12:06 17.2 17.1 99 1023.0 15.2 SW 19.7 0.0 0.4
12:07 17.2 17.1 99 1023.2 12.1 SW 19.7 0.0 0.4
12:09 17.2 17.1 99 1023.1 15.9 SW 19.0 0.0 0.4
12:10 17.2 17.1 99 1023.2 13.6 S 19.0 0.0 0.4
12:11 17.2 17.1 99 1023.2 13.0 NNE 19.0 0.0 0.4
12:12 17.2 17.1 99 1023.2 11.4 SW 19.0 0.0 0.4
12:13 17.2 17.1 99 1023.0 9.8 SW 19.0 0.0 0.4
12:14 17.2 17.1 99 1023.1 8.3 SW 17.4 0.0 0.4
12:15 17.2 17.1 99 1023.1 8.3 SW 17.4 0.0 0.4
12:16 17.2 17.1 99 1023.1 13.0 W 17.4 0.0 0.4
12:17 17.2 17.1 99 1023.2 9.8 SW 17.4 0.0 0.4
12:18 17.2 17.1 99 1023.1 19.0 W 19.0 0.0 0.4
12:19 17.2 17.1 99 1023.1 11.4 SW 19.0 0.0 0.4
12:20 17.2 17.1 99 1023.2 9.2 WSW 19.0 0.0 0.4
12:21 17.2 17.1 99 1023.2 13.6 S 19.0 0.0 0.4
12:22 17.2 17.1 99 1023.2 13.6 SW 19.0 0.0 0.4
12:24 17.2 17.1 99 1023.0 9.8 SW 19.0 0.0 0.4
12:28 17.2 17.1 99 1023.2 13.0 W 17.4 0.0 0.4
12:29 17.2 17.1 99 1023.3 11.4 SW 17.4 0.0 0.4
12:30 17.2 17.1 99 1023.2 15.2 WSW 17.4 0.0 0.4
12:31 17.2 17.1 99 1023.2 16.8 S 17.4 0.0 0.4
12:32 17.2 17.1 99 1023.2 15.9 SW 17.4 0.0 0.4
12:33 17.1 17.0 99 1023.2 19.0 SW 19.0 0.0 0.4
12:34 17.1 17.0 99 1023.1 15.9 SW 19.0 0.0 0.4
12:35 17.1 17.0 99 1023.3 9.8 SW 19.0 0.0 0.4
12:36 17.2 17.1 99 1023.2 8.3 W 19.0 0.0 0.4
12:37 17.2 17.1 99 1023.2 13.0 NNW 19.0 0.0 0.4
12:38 17.2 17.1 99 1023.4 11.4 SW 19.0 0.0 0.4
12:39 17.2 17.1 99 1023.2 9.2 SW 19.0 0.0 0.4
12:40 17.2 17.1 99 1023.1 10.7 SW 19.0 0.0 0.4
12:42 17.2 17.1 99 1023.3 17.4 W 19.0 0.0 0.4
12:43 17.2 17.1 99 1023.3 17.4 SW 17.4 0.0 0.4
12:44 17.2 17.1 99 1023.3 14.5 SSW 17.4 0.0 0.4
12:45 17.2 17.1 99 1023.3 16.8 SSW 17.4 0.0 0.4
12:46 17.2 17.1 99 1023.4 15.9 S 17.4 0.0 0.4
12:47 17.2 17.1 99 1023.4 14.5 SW 17.4 0.0 0.4
12:48 17.2 17.1 99 1023.3 12.1 SW 17.4 0.0 0.4
12:49 17.2 17.1 99 1023.2 15.2 SW 17.4 0.0 0.4
12:50 17.2 17.1 99 1023.3 13.0 SW 17.4 0.0 0.4
12:51 17.2 17.1 99 1023.3 9.8 NW 17.4 0.0 0.4
12:52 17.2 17.1 99 1023.3 13.0 SW 17.4 0.0 0.4
12:53 17.2 17.1 99 1023.3 11.4 SW 17.4 0.0 0.4
12:54 17.2 17.1 99 1023.4 11.4 SW 16.8 0.0 0.4
12:55 17.2 17.1 99 1023.3 15.9 SW 16.8 0.0 0.4
12:56 17.2 17.1 99 1023.5 12.1 SW 15.9 0.0 0.4
12:58 17.2 17.1 99 1023.4 15.2 SW 15.9 0.0 0.4
12:59 17.2 17.1 99 1023.5 16.8 SW 16.8 0.0 0.4
13:00 17.2 17.1 99 1023.4 13.6 SW 16.8 0.0 0.4
13:01 17.2 17.1 99 1023.4 12.1 SW 16.8 0.0 0.4
13:02 17.1 17.0 99 1023.5 7.6 NW 16.8 0.0 0.4
13:03 17.1 17.0 99 1023.5 12.1 SW 16.8 0.0 0.4
13:04 17.2 17.1 99 1023.5 9.8 SW 16.8 0.0 0.4
13:05 17.2 17.1 99 1023.5 9.8 SW 16.8 0.0 0.4
13:06 17.2 17.1 99 1023.5 6.9 SW 16.8 0.0 0.4
13:07 17.2 17.1 99 1023.4 7.6 S 16.8 0.0 0.4
13:08 17.2 17.1 99 1023.5 12.1 S 16.8 0.0 0.4
13:09 17.2 17.1 99 1023.6 9.8 W 16.8 0.0 0.4
13:10 17.1 17.0 99 1023.5 9.8 SW 13.6 0.0 0.4
13:11 17.2 17.1 99 1023.5 12.1 SW 14.5 0.0 0.4
13:12 17.2 17.1 99 1023.5 11.4 W 14.5 0.0 0.4
13:13 17.2 17.1 99 1023.6 16.8 SW 16.8 0.0 0.4
13:14 17.2 17.1 99 1023.6 11.4 S 16.8 0.0 0.4
13:15 17.2 17.1 99 1023.7 13.0 S 16.8 0.0 0.4
13:17 17.2 17.1 99 1023.6 13.0 SW 16.8 0.0 0.4
13:18 17.2 17.1 99 1023.6 13.6 NW 16.8 0.0 0.4
13:19 17.2 17.1 99 1023.5 13.0 SW 16.8 0.0 0.4
13:20 17.2 17.1 99 1023.6 13.0 S 16.8 0.0 0.4
13:21 17.2 17.1 99 1023.6 13.0 S 16.8 0.0 0.4
13:22 17.2 17.1 99 1023.6 13.6 SW 16.8 0.0 0.4
13:23 17.2 17.1 99 1023.6 10.7 WNW 14.5 0.0 0.4
13:24 17.2 17.1 99 1023.6 9.8 NW 13.6 0.0 0.4
13:25 17.2 17.1 99 1023.7 12.1 NW 13.6 0.0 0.4
13:26 17.2 17.1 99 1023.6 13.0 SW 13.6 0.0 0.4
13:27 17.3 17.2 99 1023.7 14.5 SW 14.5 0.0 0.4
13:28 17.3 17.2 99 1023.5 9.2 SW 14.5 0.0 0.4
13:29 17.3 17.2 99 1023.6 10.7 SW 14.5 0.0 0.4
13:31 17.3 17.2 99 1023.5 12.1 SW 14.5 0.0 0.4
13:32 17.3 17.2 99 1023.6 10.7 SW 14.5 0.0 0.4
13:33 17.3 17.2 99 1023.7 10.7 NW 14.5 0.0 0.4
13:34 17.3 17.2 99 1023.5 10.7 NW 14.5 0.0 0.4
13:35 17.2 17.1 99 1023.5 10.7 SW 14.5 0.0 0.4
13:36 17.2 17.1 99 1023.7 13.6 SW 14.5 0.0 0.4
13:37 17.2 17.1 99 1023.7 13.6 SW 14.5 0.0 0.4
13:38 17.2 17.1 99 1023.6 9.2 W 13.6 0.0 0.4
13:39 17.2 17.1 99 1023.6 8.3 SW 13.6 0.0 0.4
13:40 17.2 17.1 99 1023.7 7.6 S 13.6 0.0 0.4
13:41 17.2 17.1 99 1023.6 13.6 S 13.6 0.0 0.4
13:42 17.2 17.1 99 1023.8 9.8 WSW 13.6 0.0 0.4
13:43 17.2 17.1 99 1023.8 9.8 SW 13.6 0.0 0.4
13:44 17.2 17.1 99 1023.7 15.2 W 15.2 0.0 0.4
13:46 17.2 17.1 99 1023.7 9.2 W 17.4 0.0 0.4
13:47 17.2 17.1 99 1023.7 14.5 SSW 17.4 0.0 0.4
13:48 17.2 17.1 99 1023.8 9.2 S 17.4 0.0 0.4
13:49 17.2 17.1 99 1023.7 13.6 SW 17.4 0.0 0.4
13:50 17.2 17.1 99 1023.7 13.0 SW 17.4 0.0 0.4
13:51 17.2 17.1 99 1023.8 9.8 S 17.4 0.0 0.4
13:52 17.1 17.0 99 1023.7 11.4 NNW 17.4 0.0 0.4
13:53 17.2 17.1 99 1023.8 15.9 SW 17.4 0.0 0.4
13:54 17.2 17.1 99 1023.6 15.9 SW 17.4 0.0 0.4
13:55 17.2 17.1 99 1023.6 15.2 SW 15.9 0.0 0.4
13:56 17.2 17.1 99 1023.6 11.4 S 15.9 0.0 0.4
13:57 17.1 17.0 99 1023.6 15.9 S 15.9 0.0 0.4
13:58 17.2 17.1 99 1023.5 13.6 SW 15.9 0.0 0.4
13:59 17.1 17.0 99 1023.5 9.8 SW 15.9 0.0 0.4
14:01 17.1 17.0 99 1023.5 10.7 WSW 15.9 0.0 0.4
14:02 17.2 17.1 99 1023.5 8.3 SW 15.9 0.0 0.4
14:03 17.1 17.0 99 1023.5 11.4 SW 15.9 0.0 0.4
14:04 17.2 17.1 99 1023.5 10.7 SW 15.9 0.0 0.4
14:05 17.2 17.1 99 1023.4 13.6 S 15.9 0.0 0.4
14:06 17.2 17.1 99 1023.5 13.0 SW 15.9 0.0 0.4
14:07 17.1 17.0 99 1023.5 9.2 SW 13.6 0.0 0.4
14:08 17.2 17.1 99 1023.6 8.3 S 13.6 0.0 0.4
14:09 17.2 17.1 99 1023.5 13.6 NW 13.6 0.0 0.4
14:10 17.1 17.0 99 1023.6 9.8 SW 13.6 0.0 0.4
14:11 17.2 17.1 99 1023.5 14.5 S 14.5 0.0 0.4
14:12 17.2 17.1 99 1023.6 9.8 SW 14.5 0.0 0.4
14:13 17.2 17.1 99 1023.5 15.2 WSW 15.2 0.0 0.4
14:14 17.2 17.1 99 1023.5 9.2 SW 15.2 0.0 0.4
14:15 17.2 17.1 99 1023.6 10.7 S 15.2 0.0 0.4
14:17 17.1 17.0 99 1023.4 13.0 SW 16.8 0.0 0.4
14:18 17.2 17.1 99 1023.5 9.8 NNE 16.8 0.0 0.4
14:19 17.2 17.1 99 1023.5 11.4 SW 16.8 0.0 0.4
14:20 17.1 17.0 99 1023.6 11.4 SW 16.8 0.0 0.4
14:21 17.1 17.0 99 1023.5 15.2 SW 16.8 0.0 0.4
14:22 17.2 17.1 99 1023.6 12.1 SW 16.8 0.0 0.4
14:23 17.2 17.1 99 1023.5 9.2 SW 16.8 0.0 0.4
14:24 17.2 17.1 99 1023.5 7.6 SW 16.8 0.0 0.4
14:25 17.2 17.1 99 1023.6 15.2 S 16.8 0.0 0.4
14:26 17.2 17.1 99 1023.6 11.4 SW 16.8 0.0 0.4
14:27 17.2 17.1 99 1023.6 15.2 W 15.9 0.0 0.4
14:28 17.2 17.1 99 1023.5 11.4 S 15.9 0.0 0.4
14:29 17.2 17.1 99 1023.6 8.3 SW 15.9 0.0 0.4
14:30 17.2 17.1 99 1023.6 6.0 SW 15.9 0.0 0.4
14:31 17.2 17.1 99 1023.6 11.4 SW 15.9 0.0 0.4
14:33 17.2 17.1 99 1023.7 9.8 W 15.9 0.0 0.4
14:34 17.2 17.1 99 1023.8 9.8 SW 15.9 0.0 0.4
14:35 17.2 17.1 99 1023.6 8.3 WSW 15.9 0.0 0.4
14:36 17.2 17.1 99 1023.7 15.2 SW 15.2 0.0 0.4
14:37 17.2 17.1 99 1023.7 11.4 SW 15.2 0.0 0.4
14:38 17.2 17.1 99 1023.5 16.8 SW 16.8 0.0 0.4
14:39 17.2 17.1 99 1023.7 17.4 SW 17.4 0.0 0.4
14:40 17.2 17.1 99 1023.7 10.7 S 17.4 0.0 0.4
14:41 17.3 17.2 99 1023.7 11.4 WSW 17.4 0.0 0.4
14:42 17.3 17.2 99 1023.6 11.4 W 17.4 0.0 0.4
14:43 17.3 17.2 99 1023.6 13.6 NW 17.4 0.0 0.4
14:44 17.3 17.2 99 1023.5 13.0 S 17.4 0.0 0.4
14:45 17.3 17.2 99 1023.6 13.6 SW 17.4 0.0 0.4
14:46 17.3 17.2 99 1023.4 10.7 W 17.4 0.0 0.4
14:47 17.3 17.2 99 1023.5 10.7 WSW 17.4 0.0 0.4
14:49 17.3 17.2 99 1023.7 12.1 SW 15.2 0.0 0.4
14:50 17.3 17.2 99 1023.6 13.0 SW 15.2 0.0 0.4
14:51 17.3 17.2 99 1023.6 14.5 SW 15.2 0.0 0.4
14:53 17.3 17.2 99 1023.6 13.0 SW 15.2 0.0 0.4
14:54 17.3 17.2 99 1023.5 12.1 S 15.2 0.0 0.4
14:55 17.3 17.2 99 1023.5 9.2 SW 15.2 0.0 0.4
14:56 17.3 17.2 99 1023.7 13.0 SSW 14.5 0.0 0.4
14:57 17.3 17.2 99 1023.6 12.1 S 14.5 0.0 0.4
14:58 17.3 17.2 99 1023.7 10.7 SW 14.5 0.0 0.4
15:00 17.3 17.2 99 1023.6 11.4 WSW 14.5 0.0 0.4
15:01 17.3 17.2 99 1023.7 12.1 SW 13.0 0.0 0.4
15:02 17.3 17.2 99 1023.6 12.1 S 13.0 0.0 0.4
15:03 17.3 17.2 99 1023.6 12.1 S 13.0 0.0 0.4
15:04 17.3 17.2 99 1023.6 15.2 NW 15.2 0.0 0.4
15:05 17.3 17.2 99 1023.6 15.9 SW 15.9 0.0 0.4
15:06 17.3 17.2 99 1023.6 15.9 SW 15.9 0.0 0.4
15:07 17.3 17.2 99 1023.6 19.0 SW 19.0 0.0 0.4
15:08 17.3 17.2 99 1023.7 15.2 S 19.0 0.0 0.4
15:09 17.3 17.2 99 1023.7 15.2 S 19.0 0.0 0.4
15:10 17.3 17.2 99 1023.8 11.4 S 19.0 0.0 0.4
15:11 17.3 17.2 99 1023.5 15.2 S 19.0 0.0 0.4
15:12 17.3 17.2 99 1023.7 12.1 SW 19.0 0.0 0.4
15:13 17.3 17.2 99 1023.8 14.5 S 19.0 0.0 0.4
15:14 17.3 17.2 99 1023.6 18.3 W 19.0 0.0 0.4
15:15 17.3 17.2 99 1023.7 12.1 W 19.0 0.0 0.4
15:16 17.3 17.2 99 1023.9 19.0 SW 19.0 0.0 0.4
15:17 17.3 17.2 99 1023.9 15.2 SW 19.0 0.0 0.4
15:19 17.3 17.2 99 1023.8 16.8 SW 19.0 0.0 0.4
15:20 17.3 17.2 99 1023.8 9.2 S 19.0 0.0 0.4
15:21 17.3 17.2 99 1023.8 13.6 SW 19.0 0.0 0.4
15:22 17.3 17.2 99 1023.8 15.2 SW 19.0 0.0 0.4
15:23 17.3 17.2 99 1023.7 12.1 S 19.0 0.0 0.4
15:24 17.3 17.2 99 1023.8 17.4 SW 19.0 0.0 0.4
15:25 17.3 17.2 99 1023.8 17.4 SW 19.0 0.0 0.4
15:26 17.3 17.2 99 1023.8 14.5 W 19.0 0.0 0.4
15:27 17.3 17.2 99 1023.8 13.6 SW 17.4 0.0 0.4
15:28 17.3 17.2 99 1023.8 12.1 S 17.4 0.0 0.4
15:29 17.3 17.2 99 1023.8 13.0 S 17.4 0.0 0.4
15:30 17.3 17.2 99 1023.9 9.8 SW 17.4 0.0 0.4
15:31 17.3 17.2 99 1023.8 13.6 NNW 17.4 0.0 0.4
15:32 17.3 17.2 99 1024.0 13.0 SW 17.4 0.0 0.4
15:33 17.3 17.2 99 1023.7 9.8 W 17.4 0.0 0.4
15:35 17.3 17.2 99 1023.9 15.2 NW 15.2 0.0 0.4
15:36 17.3 17.2 99 1023.9 13.0 SW 16.8 0.0 0.4
15:37 17.3 17.2 99 1023.9 14.5 S 16.8 0.0 0.4
15:38 17.3 17.2 99 1023.9 11.4 WSW 16.8 0.0 0.4
15:39 17.3 17.2 99 1024.0 15.2 SW 16.8 0.0 0.4
15:40 17.3 17.2 99 1023.8 15.9 SW 16.8 0.0 0.4
15:41 17.2 17.1 99 1023.9 10.7 SW 16.8 0.0 0.4
15:42 17.2 17.1 99 1023.9 12.1 NW 16.8 0.0 0.4
15:43 17.2 17.1 99 1023.8 10.7 NW 16.8 0.0 0.4
15:44 17.2 17.1 99 1023.8 14.5 NW 16.8 0.0 0.4
15:45 17.2 17.1 99 1023.9 9.8 NW 16.8 0.0 0.4
15:46 17.2 17.1 99 1023.9 13.6 WSW 16.8 0.0 0.4
15:47 17.2 17.1 99 1023.8 10.7 SW 15.9 0.0 0.4
15:48 17.2 17.1 99 1023.9 13.0 NW 15.9 0.0 0.4
15:49 17.2 17.1 99 1023.8 11.4 SW 15.9 0.0 0.4
15:51 17.2 17.1 99 1023.9 15.2 SW 15.2 0.0 0.4
15:52 17.2 17.1 99 1023.8 12.1 SW 15.2 0.0 0.4
15:53 17.2 17.1 99 1023.9 15.2 SW 15.2 0.0 0.4
15:54 17.2 17.1 99 1024.0 11.4 SW 15.2 0.0 0.4
15:55 17.2 17.1 99 1023.9 15.2 N 15.2 0.0 0.4
15:56 17.2 17.1 99 1023.9 12.1 SW 15.2 0.0 0.4
15:57 17.2 17.1 99 1023.9 10.7 W 15.2 0.0 0.4
15:58 17.2 17.1 99 1024.0 9.2 SW 15.2 0.0 0.4
15:59 17.2 17.1 99 1023.9 7.6 SW 15.2 0.0 0.4
16:00 17.2 17.1 99 1024.0 6.9 NW 15.2 0.0 0.4
16:01 17.2 17.1 99 1023.8 6.9 NW 15.2 0.0 0.4
16:02 17.2 17.1 99 1023.9 12.1 NW 15.2 0.0 0.4
16:03 17.3 17.2 99 1023.9 9.2 SW 15.2 0.0 0.4
16:04 17.3 17.2 99 1024.0 8.3 W 15.2 0.0 0.4
16:06 17.3 17.2 99 1023.9 9.8 SW 13.0 0.0 0.4
16:07 17.3 17.2 99 1024.0 13.0 SW 13.0 0.0 0.4
16:08 17.3 17.2 99 1023.9 6.9 SW 13.0 0.0 0.4
16:09 17.3 17.2 99 1023.8 8.3 NW 13.0 0.0 0.4
16:10 17.3 17.2 99 1023.8 9.8 SW 13.0 0.0 0.4
16:11 17.3 17.2 99 1023.8 7.6 SW 13.0 0.0 0.4
16:12 17.3 17.2 99 1023.9 11.4 SW 13.0 0.0 0.4
16:13 17.3 17.2 99 1023.9 11.4 SW 13.0 0.0 0.4
16:14 17.3 17.2 99 1024.0 11.4 SW 13.0 0.0 0.4
16:15 17.3 17.2 99 1023.7 9.8 WNW 13.0 0.0 0.4
16:16 17.3 17.2 99 1023.9 10.7 NW 13.0 0.0 0.4
16:17 17.3 17.2 99 1023.9 9.8 SW 13.0 0.0 0.4
16:18 17.3 17.2 99 1023.9 15.9 WSW 15.9 0.0 0.4
16:19 17.3 17.2 99 1023.8 12.1 W 15.9 0.0 0.4
16:20 17.3 17.2 99 1023.8 9.2 WSW 15.9 0.0 0.4
16:21 17.3 17.2 99 1023.9 9.2 SW 15.9 0.0 0.4
16:23 17.3 17.2 99 1023.9 14.5 SW 15.9 0.0 0.4
16:24 17.3 17.2 99 1023.8 9.2 S 15.9 0.0 0.4
16:25 17.3 17.2 99 1023.8 13.6 WSW 15.9 0.0 0.4
16:26 17.3 17.2 99 1023.8 13.0 NW 15.9 0.0 0.4
16:27 17.3 17.2 99 1023.8 14.5 SSW 15.9 0.0 0.4
16:28 17.3 17.2 99 1023.9 9.8 SW 15.9 0.0 0.4
16:29 17.3 17.2 99 1024.0 9.8 SW 14.5 0.0 0.4
16:30 17.3 17.2 99 1024.0 9.2 S 14.5 0.0 0.4
16:31 17.3 17.2 99 1024.0 13.6 S 14.5 0.0 0.4
16:32 17.3 17.2 99 1024.1 14.5 S 14.5 0.0 0.4
16:33 17.3 17.2 99 1024.0 18.3 NW 18.3 0.0 0.4
16:34 17.3 17.2 99 1024.0 11.4 SW 18.3 0.0 0.4
16:35 17.3 17.2 99 1024.0 10.7 SW 18.3 0.0 0.4
16:36 17.3 17.2 99 1024.1 13.0 S 18.3 0.0 0.4
16:37 17.3 17.2 99 1024.1 8.3 N 18.3 0.0 0.4
16:39 17.3 17.2 99 1024.0 10.7 W 18.3 0.0 0.4
16:40 17.3 17.2 99 1024.1 8.3 SW 18.3 0.0 0.4
16:41 17.3 17.2 99 1024.0 11.4 SW 18.3 0.0 0.4
16:42 17.3 17.2 99 1024.0 13.0 NW 18.3 0.0 0.4
16:43 17.3 17.2 99 1024.1 13.6 NW 15.2 0.0 0.4
16:44 17.3 17.2 99 1024.0 9.8 SW 13.6 0.0 0.4
16:45 17.3 17.2 99 1024.2 9.2 W 13.6 0.0 0.4
16:46 17.3 17.2 99 1024.2 10.7 SW 13.6 0.0 0.4
16:47 17.3 17.2 99 1024.1 9.2 S 13.6 0.0 0.4
16:48 17.3 17.2 99 1024.1 13.6 SW 13.6 0.0 0.4
16:49 17.3 17.2 99 1024.1 17.4 SW 17.4 0.0 0.4
16:50 17.3 17.2 99 1024.2 13.6 SW 17.4 0.0 0.4
16:51 17.3 17.2 99 1024.2 14.5 SW 17.4 0.0 0.4
16:52 17.3 17.2 99 1024.2 13.0 S 17.4 0.0 0.4
16:54 17.3 17.2 99 1024.2 11.4 W 17.4 0.0 0.4
16:55 17.3 17.2 99 1024.2 7.6 W 17.4 0.8 0.4
16:56 17.3 17.2 99 1024.3 10.7 SW 17.4 0.8 0.4
16:57 17.3 17.2 99 1024.2 10.7 SW 17.4 0.8 0.4
16:58 17.3 17.2 99 1024.1 12.1 SW 17.4 0.8 0.4
16:59 17.3 17.2 99 1024.2 12.1 SW 14.5 0.8 0.4
17:00 17.3 17.2 99 1024.2 9.8 W 14.5 0.0 0.4
17:01 17.3 17.2 99 1024.2 9.8 W 14.5 0.0 0.4
17:02 17.3 17.2 99 1024.2 13.0 NW 13.0 0.0 0.4
17:03 17.3 17.2 99 1024.3 11.4 SW 13.0 0.0 0.4
17:04 17.3 17.2 99 1024.2 10.7 S 13.0 0.0 0.4
17:05 17.2 17.1 99 1024.3 9.2 SW 13.0 0.0 0.4
17:06 17.2 17.1 99 1024.2 9.8 NW 13.0 0.0 0.4
17:07 17.2 17.1 99 1024.3 9.8 SW 13.0 0.0 0.4
17:08 17.3 17.2 99 1024.3 12.1 SW 13.0 0.0 0.4
17:09 17.3 17.2 99 1024.3 11.4 S 13.0 0.0 0.4
17:10 17.3 17.2 99 1024.2 10.7 SW 13.0 0.0 0.4
17:11 17.2 17.1 99 1024.2 8.3 WSW 13.0 0.0 0.4
17:13 17.3 17.2 99 1024.1 13.0 S 13.0 0.0 0.4
17:14 17.3 17.2 99 1024.3 15.2 SW 15.2 0.0 0.4
17:15 17.3 17.2 99 1024.2 9.8 SW 15.2 0.0 0.4
17:16 17.3 17.2 99 1024.2 12.1 SW 15.2 0.0 0.4
17:17 17.3 17.2 99 1024.3 12.1 S 15.2 0.0 0.4
17:18 17.3 17.2 99 1024.3 13.0 SW 15.2 0.0 0.5
17:19 17.3 17.2 99 1024.2 9.8 W 15.2 0.8 0.5
17:20 17.3 17.2 99 1024.2 11.4 SW 15.2 0.8 0.5
17:21 17.3 17.2 99 1024.3 9.2 S 15.2 0.8 0.5
17:22 17.3 17.2 99 1024.2 9.2 SW 15.2 0.8 0.5
17:23 17.3 17.2 99 1024.1 9.8 SW 15.2 0.8 0.5
17:24 17.3 17.2 99 1024.4 13.0 S 15.2 0.0 0.5
17:25 17.3 17.2 99 1024.2 14.5 SW 14.5 0.0 0.5
17:26 17.3 17.2 99 1024.2 10.7 SW 14.5 0.0 0.5
17:27 17.3 17.2 99 1024.2 15.2 W 15.2 0.0 0.5
17:28 17.3 17.2 99 1024.3 9.2 WSW 15.2 0.0 0.5
17:29 17.2 17.1 99 1024.3 12.1 W 15.2 0.0 0.5
17:31 17.3 17.2 99 1024.2 8.3 W 15.2 0.0 0.5
17:32 17.2 17.1 99 1024.1 8.3 SW 15.2 0.0 0.5
17:33 17.2 17.1 99 1024.1 7.6 S 15.2 0.0 0.5
17:34 17.3 17.2 99 1024.2 11.4 SW 15.2 0.0 0.5
17:35 17.3 17.2 99 1024.4 8.3 W 15.2 0.0 0.5
17:36 17.3 17.2 99 1024.3 6.0 SW 15.2 0.0 0.5
17:37 17.3 17.2 99 1024.3 8.3 SW 15.2 0.0 0.5
17:38 17.3 17.2 99 1024.2 10.7 SSW 12.1 0.0 0.5
17:39 17.3 17.2 99 1024.3 8.3 S 12.1 0.0 0.5
17:40 17.3 17.2 99 1024.1 10.7 SW 11.4 0.0 0.5
17:41 17.3 17.2 99 1024.2 9.8 SW 11.4 0.0 0.5
17:42 17.3 17.2 99 1024.2 9.2 S 11.4 0.0 0.5
17:43 17.3 17.2 99 1024.2 9.8 NNW 11.4 0.0 0.5
17:44 17.3 17.2 99 1024.4 8.3 SW 10.7 0.0 0.5
17:45 17.3 17.2 99 1024.3 13.6 SW 13.6 0.0 0.5
17:47 17.3 17.2 99 1024.2 7.6 W 13.6 0.0 0.5
17:48 17.3 17.2 99 1024.4 9.2 WSW 13.6 0.0 0.5
17:49 17.3 17.2 99 1024.3 13.0 SW 13.6 0.0 0.5
17:50 17.3 17.2 99 1024.3 13.0 SW 13.6 0.0 0.5
17:51 17.3 17.2 99 1024.4 6.0 S 13.6 0.0 0.5
17:52 17.3 17.2 99 1024.3 10.7 SW 13.6 0.0 0.5
17:53 17.3 17.2 99 1024.5 11.4 SW 13.6 0.0 0.5
17:54 17.3 17.2 99 1024.3 13.0 SW 13.6 0.0 0.5
17:55 17.3 17.2 99 1024.3 11.4 S 13.6 0.0 0.5
17:56 17.3 17.2 99 1024.5 15.2 SW 15.2 0.0 0.5
17:57 17.3 17.2 99 1024.4 15.2 SW 15.2 0.0 0.5
17:58 17.2 17.1 99 1024.4 11.4 NW 15.2 0.0 0.5
17:59 17.2 17.1 99 1024.4 11.4 SW 15.2 0.0 0.5
18:00 17.2 17.1 99 1024.3 11.4 W 15.2 0.0 0.5
18:02 17.2 17.1 99 1024.5 10.7 SW 15.2 0.0 0.5
18:03 17.2 17.1 99 1024.4 9.2 SW 15.2 0.0 0.5
18:04 17.2 17.1 99 1024.4 9.2 SW 15.2 0.0 0.5
18:05 17.2 17.1 99 1024.5 11.4 SW 15.2 0.0 0.5
18:06 17.2 17.1 99 1024.5 9.2 W 15.2 0.0 0.5
18:07 17.2 17.1 99 1024.5 6.0 NNW 12.1 0.0 0.5
18:08 17.2 17.1 99 1024.4 8.3 SW 11.4 0.0 0.5
18:09 17.2 17.1 99 1024.5 6.9 SW 11.4 0.0 0.5
18:10 17.2 17.1 99 1024.4 15.2 SW 15.2 0.0 0.5
18:11 17.2 17.1 99 1024.4 6.9 NW 15.2 0.0 0.5
18:12 17.2 17.1 99 1024.3 6.0 NW 15.2 0.0 0.5
18:13 17.2 17.1 99 1024.5 6.0 SW 15.2 0.0 0.5
18:14 17.2 17.1 99 1024.4 6.0 SW 15.2 0.0 0.5
18:15 17.2 17.1 99 1024.4 10.7 S 15.2 0.0 0.5
18:16 17.2 17.1 99 1024.4 12.1 SW 15.2 0.0 0.5
18:17 17.2 17.1 99 1024.5 11.4 SW 15.2 0.0 0.5
18:18 17.2 17.1 99 1024.5 10.7 SW 15.2 0.0 0.5
18:19 17.2 17.1 99 1024.5 7.6 SW 15.2 0.0 0.5
18:20 17.2 17.1 99 1024.5 6.9 SW 12.1 0.0 0.5
18:21 17.2 17.1 99 1024.5 9.8 SW 12.1 0.0 0.5
18:22 17.2 17.1 99 1024.6 9.2 NW 12.1 0.0 0.5
18:23 17.2 17.1 99 1024.8 7.6 SW 12.1 0.0 0.5
18:24 17.2 17.1 99 1024.6 5.4 SW 12.1 0.0 0.5
18:26 17.2 17.1 99 1024.5 10.7 S 11.4 0.0 0.5
18:27 17.2 17.1 99 1024.6 7.6 W 10.7 0.0 0.5
18:28 17.2 17.1 99 1024.7 6.9 SW 10.7 0.0 0.5
18:29 17.2 17.1 99 1024.5 9.2 SW 10.7 0.0 0.5
18:30 17.2 17.1 99 1024.5 9.2 SW 10.7 0.0 0.5
18:31 17.2 17.1 99 1024.6 10.7 SW 10.7 0.0 0.5
18:32 17.2 17.1 99 1024.8 12.1 SW 12.1 0.0 0.5
18:34 17.1 17.0 99 1024.5 11.4 W 12.1 0.0 0.5
18:35 17.1 17.0 99 1024.6 7.6 SW 12.1 0.0 0.5
18:36 17.1 17.0 99 1024.6 8.3 SSW 12.1 0.0 0.5
18:37 17.1 17.0 99 1024.5 7.6 NW 12.1 0.0 0.5
18:38 17.1 17.0 99 1024.7 9.8 S 12.1 0.0 0.5
18:39 17.1 17.0 99 1024.7 10.7 W 12.1 0.0 0.5
18:40 17.1 17.0 99 1024.5 9.8 NW 12.1 0.0 0.5
18:41 17.1 17.0 99 1024.5 9.8 W 12.1 0.0 0.5
18:42 17.1 17.0 99 1024.7 6.9 SW 12.1 0.0 0.5
18:43 17.1 17.0 99 1024.5 9.8 W 11.4 0.0 0.5
18:44 17.1 17.0 99 1024.5 10.7 W 11.4 0.0 0.5
18:45 17.1 17.0 99 1024.6 9.2 WSW 10.7 0.0 0.5
18:46 17.1 17.0 99 1024.7 6.0 W 10.7 0.0 0.5
18:47 17.1 17.0 99 1024.5 6.9 SW 10.7 0.0 0.5
18:48 17.1 17.0 99 1024.5 11.4 SW 11.4 0.0 0.5
18:49 17.1 17.0 99 1024.6 9.8 SW 11.4 0.0 0.5
18:51 17.1 17.0 99 1024.6 11.4 NW 11.4 0.0 0.6
18:52 17.1 17.0 99 1024.7 9.8 SW 11.4 0.8 0.6
18:53 17.1 17.0 99 1024.6 8.3 SW 11.4 0.8 0.6
18:54 17.1 17.0 99 1024.7 9.8 SW 11.4 0.8 0.6
18:55 17.0 16.9 99 1024.7 9.2 WSW 11.4 0.8 0.6
18:56 17.0 16.9 99 1024.7 9.2 W 11.4 0.8 0.6
18:57 17.0 16.9 99 1024.7 12.1 N 12.1 0.0 0.6
18:58 17.0 16.9 99 1024.7 6.9 SW 12.1 0.0 0.6
18:59 17.0 16.9 99 1024.7 11.4 W 12.1 0.0 0.6
19:00 17.0 16.9 99 1024.6 6.9 WNW 12.1 0.0 0.6
19:01 17.0 16.9 99 1024.7 6.9 WNW 12.1 0.0 0.6
19:02 17.0 16.9 99 1024.6 9.8 S 12.1 0.0 0.6
19:03 17.0 16.9 99 1024.6 6.0 S 12.1 0.0 0.6
19:04 17.0 16.9 99 1024.8 7.6 S 12.1 0.0 0.6
19:05 17.0 16.9 99 1024.8 9.2 SW 12.1 0.0 0.6
19:06 17.0 16.9 99 1024.7 6.9 W 12.1 0.0 0.6
19:07 17.0 16.9 99 1024.8 9.8 SW 11.4 0.0 0.6
19:08 17.0 16.9 99 1024.8 9.8 SW 11.4 0.0 0.6
19:09 17.0 16.9 99 1024.8 15.2 SW 15.2 0.0 0.6
19:11 17.0 16.9 99 1024.8 9.8 SW 15.2 0.0 0.6
19:12 16.9 16.8 99 1024.6 11.4 NW 15.2 0.0 0.6
19:13 17.0 16.9 99 1024.7 7.6 SE 15.2 0.0 0.6
19:14 17.0 16.9 99 1024.6 9.8 SW 15.2 0.0 0.6
19:15 16.9 16.8 99 1024.7 12.1 SW 15.2 0.0 0.6
19:16 16.9 16.8 99 1024.8 12.1 SW 15.2 0.0 0.6
19:17 16.9 16.8 99 1024.7 13.6 SW 15.2 0.0 0.6
19:18 16.9 16.8 99 1024.7 11.4 S 15.2 0.0 0.6
19:19 16.9 16.8 99 1024.9 8.3 SW 15.2 0.0 0.6
19:20 16.9 16.8 99 1024.9 7.6 W 13.6 0.0 0.6
19:21 16.9 16.8 99 1024.8 10.7 SW 13.6 0.0 0.6
19:22 16.9 16.8 99 1024.8 9.2 SW 13.6 0.0 0.6
19:23 16.9 16.8 99 1024.8 7.6 W 13.6 0.0 0.6
19:24 16.9 16.8 99 1024.7 9.8 WSW 13.6 0.0 0.6
19:26 16.9 16.8 99 1024.8 10.7 NW 13.6 0.0 0.6
19:27 16.9 16.8 99 1024.8 6.0 SSW 12.1 0.0 0.6
19:28 16.9 16.8 99 1024.8 6.0 SW 10.7 0.0 0.6
19:29 16.9 16.8 99 1024.8 6.0 SW 10.7 0.0 0.6
19:30 16.9 16.8 99 1024.9 6.9 S 10.7 0.0 0.6
19:31 16.9 16.8 99 1024.8 9.8 S 10.7 0.0 0.6
19:32 16.9 16.8 99 1024.8 6.0 WSW 10.7 0.0 0.6
19:33 16.9 16.8 99 1024.8 6.9 SW 10.7 0.0 0.6
19:34 16.9 16.8 99 1024.9 9.8 SW 10.7 0.0 0.6
19:35 16.8 16.7 99 1024.9 4.5 SW 10.7 0.0 0.6
19:36 16.8 16.7 99 1024.9 10.7 SW 10.7 0.0 0.6
19:37 16.8 16.7 99 1024.9 6.9 WSW 10.7 0.0 0.6
19:38 16.8 16.7 99 1024.9 9.8 SW 10.7 0.0 0.6
19:39 16.8 16.7 99 1025.0 10.7 SW 10.7 0.0 0.6
19:42 16.8 16.7 99 1025.0 11.4 SW 11.4 0.0 0.6
19:43 16.8 16.7 99 1025.0 6.9 S 11.4 0.0 0.6
19:44 16.8 16.7 99 1025.0 8.3 SW 11.4 0.0 0.6
19:45 16.8 16.7 99 1025.1 7.6 SW 11.4 0.0 0.6
19:46 16.8 16.7 99 1025.2 6.9 NW 11.4 0.0 0.6
19:47 16.8 16.7 99 1024.9 7.6 W 11.4 0.0 0.6
19:48 16.8 16.7 99 1025.0 6.9 SW 11.4 0.0 0.6
19:49 16.8 16.7 99 1025.0 5.4 WNW 11.4 0.0 0.6
19:50 16.8 16.7 99 1025.0 6.9 SSE 11.4 0.0 0.6
19:51 16.8 16.7 99 1025.0 5.4 SW 11.4 0.0 0.6
19:52 16.8 16.7 99 1025.1 7.6 SW 11.4 0.0 0.6
19:53 16.8 16.7 99 1025.0 9.2 SW 9.2 0.0 0.6
19:54 16.8 16.7 99 1025.0 11.4 NW 11.4 0.0 0.6
19:55 16.8 16.7 99 1024.9 8.3 SW 11.4 0.0 0.6
19:56 16.8 16.7 99 1025.1 9.2 W 11.4 0.0 0.6
19:58 16.8 16.7 99 1025.0 8.3 S 11.4 0.0 0.6
19:59 16.8 16.7 99 1025.0 6.9 SW 11.4 0.0 0.6
20:00 16.8 16.7 99 1024.9 6.0 WSW 11.4 0.0 0.6
20:01 16.8 16.7 99 1025.0 6.0 WSW 11.4 0.0 0.6
20:02 16.8 16.7 99 1025.2 6.0 WSW 11.4 0.0 0.6
20:03 16.8 16.7 99 1025.0 6.0 WSW 11.4 0.0 0.6
20:04 16.8 16.7 99 1025.0 6.0 WSW 9.2 0.0 0.6
20:05 16.8 16.7 99 1025.1 6.0 WSW 9.2 0.0 0.6
20:06 16.8 16.7 99 1025.2 7.6 SE 9.2 0.0 0.6
20:07 16.8 16.7 99 1025.3 6.0 SW 8.3 0.0 0.6
20:08 16.8 16.7 99 1025.2 6.0 W 8.3 0.0 0.6
20:09 16.8 16.7 99 1025.2 11.4 SW 11.4 0.0 0.6
20:10 16.8 16.7 99 1025.1 6.9 SW 11.4 0.0 0.6
20:11 16.8 16.7 99 1025.2 7.6 SSW 11.4 0.0 0.6
20:12 16.8 16.7 99 1025.4 7.6 SW 11.4 0.0 0.6
20:14 16.8 16.7 99 1025.3 10.7 SW 11.4 0.0 0.6
20:15 16.8 16.7 99 1025.4 9.8 SW 11.4 0.0 0.6
20:16 16.8 16.7 99 1025.4 6.9 SSW 11.4 0.0 0.6
20:17 16.7 16.6 99 1025.4 8.3 SW 11.4 0.0 0.6
20:18 16.7 16.6 99 1025.5 7.6 SW 11.4 0.0 0.6
20:19 16.7 16.6 99 1025.5 6.9 NW 11.4 0.0 0.6
20:20 16.7 16.6 99 1025.5 6.0 SW 11.4 0.0 0.6
20:21 16.7 16.6 99 1025.7 5.4 SW 11.4 0.0 0.6
20:22 16.7 16.6 99 1025.5 6.9 S 11.4 0.0 0.6
20:23 16.7 16.6 99 1025.5 8.3 NW 10.7 0.0 0.6
20:24 16.7 16.6 99 1025.7 7.6 SW 9.8 0.0 0.6
20:25 16.7 16.6 99 1025.6 8.3 S 9.8 0.0 0.6
20:26 16.7 16.6 99 1025.7 15.2 WSW 15.2 0.0 0.6
20:27 16.7 16.6 99 1025.6 12.1 SW 15.2 0.0 0.6
20:28 16.7 16.6 99 1025.6 10.7 SSW 15.2 0.0 0.6
20:29 16.7 16.6 99 1025.7 9.8 S 15.2 0.0 0.6
20:30 16.7 16.6 99 1025.7 10.7 SW 15.2 0.0 0.6
20:32 16.7 16.6 99 1025.6 6.9 S 15.2 0.0 0.6
20:33 16.7 16.6 99 1025.7 11.4 SW 15.2 0.0 0.6
20:34 16.7 16.6 99 1025.6 7.6 SW 15.2 0.0 0.6
20:35 16.7 16.6 99 1025.8 9.2 SW 15.2 0.8 0.6
20:36 16.7 16.6 99 1025.8 9.2 W 12.1 0.8 0.6
20:37 16.7 16.6 99 1025.8 4.5 SW 11.4 0.8 0.6
20:38 16.7 16.6 99 1025.6 3.8 SW 11.4 0.8 0.6
20:39 16.7 16.6 99 1025.8 0.0 SW 11.4 0.8 0.6
20:40 16.7 16.6 99 1025.8 7.6 SW 11.4 0.0 0.6
20:41 16.7 16.6 99 1025.7 6.0 S 11.4 0.0 0.6
20:42 16.7 16.6 99 1025.7 6.0 SW 11.4 0.0 0.6
20:43 16.7 16.6 99 1025.8 6.9 SE 10.7 0.0 0.6
20:44 16.7 16.6 99 1025.8 6.9 SE 10.7 0.0 0.6
20:45 16.7 16.6 99 1025.8 6.0 WSW 9.2 0.0 0.6
20:46 16.7 16.6 99 1025.9 11.4 SW 11.4 0.0 0.6
20:47 16.7 16.6 99 1025.9 9.8 SW 11.4 0.0 0.6
20:48 16.7 16.6 99 1025.8 9.8 SW 11.4 0.0 0.6
20:49 16.7 16.6 99 1025.9 7.6 WSW 11.4 0.0 0.6
20:51 16.7 16.6 99 1025.9 9.2 S 11.4 0.0 0.6
20:52 16.7 16.6 99 1025.8 9.2 SW 11.4 0.0 0.6
20:53 16.7 16.6 99 1026.0 13.0 SW 13.0 0.0 0.6
20:54 16.7 16.6 99 1025.9 7.6 SW 13.0 0.0 0.6
20:55 16.7 16.6 99 1026.0 8.3 S 13.0 0.0 0.6
20:56 16.7 16.6 99 1026.0 5.4 SW 13.0 0.0 0.6
20:57 16.7 16.6 99 1026.0 7.6 SW 13.0 0.0 0.7
20:58 16.7 16.6 99 1026.0 5.4 SW 13.0 0.8 0.7
20:59 16.7 16.6 99 1026.0 7.6 SW 13.0 0.8 0.7
21:00 16.7 16.6 99 1026.1 7.6 SW 13.0 0.8 0.7
21:01 16.7 16.6 99 1026.1 7.6 SW 13.0 0.8 0.7
21:02 16.7 16.6 99 1026.0 7.6 SW 13.0 0.8 0.7
21:03 16.7 16.6 99 1026.0 7.6 SW 10.7 0.0 0.7
21:04 16.7 16.6 99 1026.0 7.6 SW 10.7 0.0 0.7
21:05 16.7 16.6 99 1026.0 7.6 SW 9.2 0.0 0.7
21:06 16.6 16.5 99 1026.0 9.2 SW 9.2 0.0 0.7
21:07 16.6 16.5 99 1026.0 9.2 NW 9.2 0.0 0.7
21:08 16.6 16.5 99 1026.1 11.4 SW 11.4 0.0 0.7
21:09 16.6 16.5 99 1026.1 4.5 WSW 11.4 0.0 0.7
21:10 16.6 16.5 99 1026.1 3.8 W 11.4 0.0 0.7
21:11 16.6 16.5 99 1026.1 0.7 SW 11.4 0.0 0.7
21:12 16.6 16.5 99 1026.0 6.0 SW 11.4 0.0 0.7
21:13 16.6 16.5 99 1026.0 7.6 WSW 11.4 0.0 0.7
21:15 16.6 16.5 99 1025.9 8.3 SW 11.4 0.0 0.7
21:16 16.6 16.5 99 1026.0 8.3 SW 11.4 0.0 0.7
21:17 16.6 16.5 99 1026.0 8.3 SW 11.4 0.0 0.7
21:18 16.6 16.5 99 1026.0 8.3 SW 9.2 0.0 0.7
21:19 16.6 16.5 99 1025.9 7.6 S 9.2 0.0 0.7
21:20 16.6 16.5 99 1025.8 6.0 SW 9.2 0.0 0.7
21:21 16.6 16.5 99 1026.0 7.6 SW 9.2 0.0 0.7
21:22 16.6 16.5 99 1026.0 7.6 SW 9.2 0.0 0.7
21:23 16.6 16.5 99 1026.0 8.3 SW 9.2 0.0 0.7
21:24 16.6 16.5 99 1026.0 7.6 SW 9.2 0.0 0.7
21:25 16.6 16.5 99 1026.2 7.6 SSW 9.2 0.0 0.7
21:26 16.6 16.5 99 1026.2 5.4 SW 8.3 0.0 0.7
21:27 16.6 16.5 99 1026.2 5.4 SW 8.3 0.0 0.7
21:28 16.6 16.5 99 1026.1 7.6 NW 8.3 0.0 0.7
21:29 16.6 16.5 99 1026.0 6.9 SW 8.3 0.0 0.7
21:30 16.6 16.5 99 1026.0 7.6 SW 8.3 0.0 0.7
21:31 16.6 16.5 99 1026.0 7.6 SW 8.3 0.0 0.7
21:32 16.6 16.5 99 1026.1 9.2 SW 9.2 0.0 0.7
21:33 16.6 16.5 99 1026.0 8.3 SW 9.2 0.0 0.7
21:35 16.6 16.5 99 1026.1 6.9 SW 9.2 0.0 0.7
21:36 16.6 16.5 99 1026.2 3.8 SW 9.2 0.0 0.7
21:37 16.6 16.5 99 1026.0 10.7 SW 10.7 0.0 0.7
21:38 16.6 16.5 99 1026.2 7.6 SW 10.7 0.0 0.7
21:39 16.6 16.5 99 1026.1 8.3 SW 10.7 0.0 0.7
21:40 16.6 16.5 99 1026.1 6.9 SW 10.7 0.0 0.7
21:41 16.6 16.5 99 1026.2 5.4 SW 10.7 0.0 0.7
21:42 16.6 16.5 99 1026.2 8.3 WSW 10.7 0.0 0.7
21:43 16.6 16.5 99 1026.2 8.3 SW 10.7 0.0 0.7
21:44 16.6 16.5 99 1026.1 8.3 SW 10.7 0.0 0.7
21:45 16.6 16.5 99 1026.1 5.4 SW 10.7 0.0 0.7
21:46 16.6 16.5 99 1026.2 4.5 SW 10.7 0.0 0.7
21:47 16.6 16.5 99 1026.2 4.5 SW 10.7 0.0 0.7
21:48 16.6 16.5 99 1026.1 6.0 SW 8.3 0.0 0.7
21:49 16.6 16.5 99 1026.2 9.2 SW 9.2 0.0 0.7
21:50 16.6 16.5 99 1026.2 6.9 WSW 9.2 0.0 0.7
21:51 16.6 16.5 99 1026.3 6.9 WSW 9.2 0.0 0.7
21:52 16.6 16.5 99 1026.1 6.9 NNW 9.2 0.0 0.7
21:54 16.6 16.5 99 1026.1 8.3 SW 9.2 0.0 0.7
21:55 16.6 16.5 99 1026.1 7.6 SW 9.2 0.0 0.7
21:56 16.6 16.5 99 1026.3 5.4 SW 9.2 0.0 0.7
21:57 16.6 16.5 99 1026.2 9.2 SW 9.2 0.0 0.7
21:58 16.6 16.5 99 1026.3 8.3 SW 9.2 0.0 0.7
21:59 16.6 16.5 99 1026.3 8.3 SW 9.2 0.0 0.7
22:00 16.6 16.5 99 1026.3 4.5 W 9.2 0.0 0.7
22:01 16.6 16.5 99 1026.3 8.3 SW 9.2 0.0 0.7
22:02 16.6 16.5 99 1026.2 6.9 S 9.2 0.0 0.7
22:03 16.6 16.5 99 1026.2 6.0 SE 9.2 0.0 0.7
22:04 16.6 16.5 99 1026.3 7.6 SW 9.2 0.0 0.7
22:05 16.6 16.5 99 1026.4 9.2 SW 9.2 0.0 0.7
22:06 16.6 16.5 99 1026.2 9.8 SW 9.8 0.0 0.7
22:07 16.6 16.5 99 1026.2 9.8 SW 9.8 0.0 0.7
22:08 16.6 16.5 99 1026.2 9.2 WSW 9.8 0.0 0.7
22:09 16.6 16.5 99 1026.3 8.3 ESE 9.8 0.0 0.7
22:10 16.6 16.5 99 1026.2 7.6 S 9.8 0.0 0.7
22:11 16.6 16.5 99 1026.4 9.2 W 9.8 0.0 0.7
22:12 16.6 16.5 99 1026.3 9.8 SW 9.8 0.0 0.7
22:13 16.6 16.5 99 1026.3 6.0 W 9.8 0.0 0.7
22:15 16.6 16.5 99 1026.2 6.0 SW 10.7 0.8 0.8
22:16 16.6 16.5 99 1026.2 6.0 S 10.7 0.8 0.8
22:17 16.6 16.5 99 1026.3 7.6 SW 10.7 0.8 0.8
22:18 16.6 16.5 99 1026.3 7.6 SW 10.7 0.8 0.8
22:19 16.6 16.5 99 1026.3 6.9 WNW 10.7 0.8 0.8
22:20 16.6 16.5 99 1026.2 9.2 SW 10.7 0.0 0.8
22:21 16.6 16.5 99 1026.2 8.3 SW 10.7 0.0 0.8
22:22 16.6 16.5 99 1026.3 8.3 WNW 10.7 0.0 0.8
22:23 16.6 16.5 99 1026.2 8.3 SW 10.7 0.0 0.8
22:24 16.6 16.5 99 1026.2 6.9 SW 10.7 0.0 0.8
22:25 16.6 16.5 99 1026.2 6.9 WSW 9.2 0.0 0.8
22:26 16.6 16.5 99 1026.2 6.9 WSW 9.2 0.0 0.8
22:27 16.6 16.5 99 1026.3 6.0 SSW 9.2 0.0 0.8
22:28 16.6 16.5 99 1026.3 5.4 SW 9.2 0.0 0.8
22:29 16.6 16.5 99 1026.2 6.0 NW 9.2 0.0 0.8
22:30 16.6 16.5 99 1026.4 10.7 SW 10.7 0.0 0.8
22:31 16.6 16.5 99 1026.3 6.9 W 10.7 0.0 0.8
22:32 16.6 16.5 99 1026.2 7.6 WNW 10.7 0.0 0.8
22:34 16.6 16.5 99 1026.2 6.9 NW 10.7 0.0 0.8
22:35 16.6 16.5 99 1026.2 6.9 S 10.7 0.0 0.8
22:36 16.6 16.5 99 1026.1 8.3 N 10.7 0.0 0.8
22:37 16.6 16.5 99 1026.3 6.9 W 10.7 0.0 0.8
22:38 16.6 16.5 99 1026.4 6.0 SW 10.7 0.0 0.8
22:39 16.6 16.5 99 1026.3 7.6 W 10.7 0.0 0.8
22:40 16.6 16.5 99 1026.2 7.6 SW 9.2 0.0 0.8
22:41 16.6 16.5 99 1026.3 9.8 SW 9.8 0.0 0.8
22:42 16.6 16.5 99 1026.2 6.9 S 9.8 0.0 0.8
22:43 16.6 16.5 99 1026.2 11.4 W 11.4 0.0 0.8
22:44 16.6 16.5 99 1026.1 10.7 SW 11.4 0.0 0.8
22:45 16.6 16.5 99 1026.1 8.3 SW 11.4 0.0 0.8
22:46 16.6 16.5 99 1026.2 8.3 W 11.4 0.0 0.8
22:47 16.6 16.5 99 1026.2 5.4 S 11.4 0.0 0.8
22:48 16.6 16.5 99 1026.2 6.9 SW 11.4 0.0 0.8
22:49 16.6 16.5 99 1026.3 6.9 SW 11.4 0.0 0.8
22:50 16.6 16.5 99 1026.1 8.3 SW 11.4 0.0 0.8
22:51 16.6 16.5 99 1026.2 9.8 SW 11.4 0.0 0.8
22:53 16.6 16.5 99 1026.4 6.0 NW 11.4 0.0 0.8
22:54 16.6 16.5 99 1026.3 6.9 SW 9.8 0.0 0.8
22:55 16.6 16.5 99 1026.4 6.9 WSW 9.8 0.0 0.8
22:56 16.6 16.5 99 1026.4 9.2 SW 9.8 0.0 0.8
22:57 16.6 16.5 99 1026.5 7.6 SW 9.8 0.0 0.8
22:58 16.6 16.5 99 1026.4 7.6 SW 9.8 0.0 0.8
22:59 16.6 16.5 99 1026.5 7.6 SW 9.8 0.0 0.8
23:00 16.6 16.5 99 1026.3 5.4 SW 9.8 0.0 0.8
23:01 16.6 16.5 99 1026.5 5.4 SW 9.2 0.0 0.8
23:02 16.5 16.4 99 1026.3 7.6 S 9.2 0.0 0.8
23:03 16.6 16.5 99 1026.5 7.6 NW 9.2 0.0 0.8
23:04 16.6 16.5 99 1026.5 6.9 SW 9.2 0.0 0.8
23:05 16.5 16.4 99 1026.5 6.9 WSW 9.2 0.0 0.8
23:06 16.6 16.5 99 1026.7 9.8 S 9.8 0.0 0.8
23:07 16.6 16.5 99 1026.5 6.9 W 9.8 0.0 0.8
23:08 16.6 16.5 99 1026.5 5.4 SW 9.8 0.0 0.8
23:09 16.6 16.5 99 1026.5 6.9 W 9.8 0.0 0.8
23:10 16.6 16.5 99 1026.5 3.8 SW 9.8 0.0 0.8
23:11 16.6 16.5 99 1026.5 5.4 W 9.8 0.0 0.8
23:12 16.5 16.4 99 1026.5 6.0 SW 9.8 0.0 0.8
23:13 16.5 16.4 99 1026.5 7.6 SW 9.8 0.0 0.8
23:14 16.5 16.4 99 1026.4 7.6 SW 9.8 0.0 0.8
23:15 16.5 16.4 99 1026.5 6.9 SW 9.8 0.0 0.8
23:16 16.5 16.4 99 1026.6 6.0 N 9.8 0.0 0.8
23:17 16.5 16.4 99 1026.5 6.0 WSW 7.6 0.0 0.8
23:18 16.5 16.4 99 1026.4 6.9 SW 7.6 0.0 0.8
23:20 16.5 16.4 99 1026.4 8.3 SW 8.3 0.0 0.8
23:21 16.5 16.4 99 1026.4 6.0 WSW 8.3 0.0 0.8
23:22 16.5 16.4 99 1026.4 6.9 W 8.3 0.0 0.8
23:23 16.6 16.5 99 1026.5 6.0 SW 8.3 0.0 0.8
23:24 16.5 16.4 99 1026.3 6.9 SW 8.3 0.0 0.8
23:25 16.6 16.5 99 1026.4 8.3 SW 8.3 0.0 0.8
23:26 16.5 16.4 99 1026.5 7.6 SW 8.3 0.0 0.8
23:27 16.6 16.5 99 1026.4 9.2 SW 9.2 0.0 0.8
23:28 16.5 16.4 99 1026.5 6.9 SW 9.2 0.0 0.8
23:29 16.5 16.4 99 1026.5 6.9 SW 9.2 0.0 0.8
23:30 16.5 16.4 99 1026.6 5.4 SW 9.2 0.0 0.8
23:31 16.5 16.4 99 1026.6 5.4 SW 9.2 0.0 0.8
23:32 16.6 16.5 99 1026.5 5.4 SW 9.2 0.0 0.8
23:33 16.6 16.5 99 1026.5 7.6 WNW 9.2 0.0 0.8
23:34 16.5 16.4 99 1026.4 9.8 NW 9.8 0.0 0.8
23:35 16.6 16.5 99 1026.5 9.2 SW 9.8 0.0 0.8
23:36 16.6 16.5 99 1026.5 7.6 SW 9.8 0.0 0.8
23:37 16.5 16.4 99 1026.4 10.7 W 10.7 0.0 0.8
23:39 16.6 16.5 99 1026.4 7.6 SW 10.7 0.0 0.8
23:40 16.5 16.4 99 1026.4 5.4 W 10.7 0.0 0.8
23:41 16.5 16.4 99 1026.5 6.0 SW 10.7 0.0 0.8
23:42 16.5 16.4 99 1026.5 7.6 SW 10.7 0.0 0.8
23:43 16.5 16.4 99 1026.4 8.3 SW 10.7 0.0 0.8
23:44 16.5 16.4 99 1026.5 9.2 W 10.7 0.0 0.8
23:45 16.5 16.4 99 1026.5 9.2 SW 10.7 0.0 0.8
23:46 16.5 16.4 99 1026.6 7.6 S 10.7 0.0 0.8
23:47 16.5 16.4 99 1026.5 8.3 SW 9.2 0.0 0.8
23:48 16.6 16.5 99 1026.5 8.3 SW 9.2 0.0 0.8
23:49 16.5 16.4 99 1026.5 6.9 S 9.2 0.0 0.8
23:50 16.5 16.4 99 1026.5 9.8 SW 9.8 0.0 0.8
23:51 16.5 16.4 99 1026.5 7.6 W 9.8 0.0 0.8
23:52 16.6 16.5 99 1026.5 9.2 WSW 9.8 0.0 0.8
23:53 16.5 16.4 99 1026.5 8.3 SW 9.8 0.0 0.8
23:54 16.6 16.5 99 1026.5 9.8 SW 9.8 0.0 0.8
23:55 16.5 16.4 99 1026.5 7.6 SW 9.8 0.0 0.8
23:56 16.5 16.4 99 1026.5 6.0 S 9.8 0.0 0.8
23:58 16.5 16.4 99 1026.4 7.6 SW 9.8 0.0 0.8
23:59 16.5 16.4 99 1026.4 6.0 W 9.8 0.0 0.8

UK - WEATHER STATION TOPSITES - UK World Weather Websites

This is a private weather station, never base important decisions or events on data from this weather station. Although every effort has been made to make the data as accurate as possible it does not meet MetOffice standards. It is proved as a guide of local weather conditions. We accept no liability for any loss which may arise from use of the data.

Copyright © Carnkie Weather 2009 - 2019.